<?xml version="1.0" encoding="UTF-8" standalone="no" ?>
<gpx xmlns="http://www.topografix.com/GPX/1/1" xmlns:xsi="http://www.w3.org/2001/XMLSchema-instance" xsi:schemaLocation="http://www.topografix.com/GPX/1/1 http://www.topografix.com/GPX/1/1/gpx.xsd" version="1.1" creator="VisuGPX - https://www.visugpx.com">
  <metadata>
    <name>2025-01-19  Randonnée TwoNav</name>
    <desc><![CDATA[2025-01-19_151427.trk]]></desc>
  </metadata>
  <trk>
    <name><![CDATA[2025-01-19  Randonnée TwoNav_1]]></name>
    <trkseg>
      <trkpt lat="48.25092" lon="6.56444">
        <ele>326.4</ele>
        <time>2025-01-19T14:14:27Z</time>
      </trkpt>
      <trkpt lat="48.25085" lon="6.5644">
        <ele>326.3</ele>
        <time>2025-01-19T14:14:28Z</time>
      </trkpt>
      <trkpt lat="48.25079" lon="6.56439">
        <ele>326.2</ele>
        <time>2025-01-19T14:14:29Z</time>
      </trkpt>
      <trkpt lat="48.25072" lon="6.56437">
        <ele>326.1</ele>
        <time>2025-01-19T14:14:40Z</time>
      </trkpt>
      <trkpt lat="48.25066" lon="6.56435">
        <ele>326.1</ele>
        <time>2025-01-19T14:14:49Z</time>
      </trkpt>
      <trkpt lat="48.25059" lon="6.56433">
        <ele>326.1</ele>
        <time>2025-01-19T14:14:58Z</time>
      </trkpt>
      <trkpt lat="48.25053" lon="6.56431">
        <ele>326.1</ele>
        <time>2025-01-19T14:15:07Z</time>
      </trkpt>
      <trkpt lat="48.25046" lon="6.56429">
        <ele>326.1</ele>
        <time>2025-01-19T14:15:16Z</time>
      </trkpt>
      <trkpt lat="48.2504" lon="6.56428">
        <ele>326.1</ele>
        <time>2025-01-19T14:15:25Z</time>
      </trkpt>
      <trkpt lat="48.25034" lon="6.56426">
        <ele>326.2</ele>
        <time>2025-01-19T14:15:25Z</time>
      </trkpt>
      <trkpt lat="48.25024" lon="6.56424">
        <ele>326.2</ele>
        <time>2025-01-19T14:15:34Z</time>
      </trkpt>
      <trkpt lat="48.25014" lon="6.56423">
        <ele>326.3</ele>
        <time>2025-01-19T14:15:42Z</time>
      </trkpt>
      <trkpt lat="48.25005" lon="6.56422">
        <ele>326.4</ele>
        <time>2025-01-19T14:15:51Z</time>
      </trkpt>
      <trkpt lat="48.24995" lon="6.56422">
        <ele>326.5</ele>
        <time>2025-01-19T14:15:59Z</time>
      </trkpt>
      <trkpt lat="48.24986" lon="6.56422">
        <ele>326.6</ele>
        <time>2025-01-19T14:16:07Z</time>
      </trkpt>
      <trkpt lat="48.24977" lon="6.56421">
        <ele>326.8</ele>
        <time>2025-01-19T14:16:15Z</time>
      </trkpt>
      <trkpt lat="48.24967" lon="6.5642">
        <ele>326.9</ele>
        <time>2025-01-19T14:16:24Z</time>
      </trkpt>
      <trkpt lat="48.24958" lon="6.56419">
        <ele>327.1</ele>
        <time>2025-01-19T14:16:32Z</time>
      </trkpt>
      <trkpt lat="48.24948" lon="6.56417">
        <ele>327.3</ele>
        <time>2025-01-19T14:16:40Z</time>
      </trkpt>
      <trkpt lat="48.24939" lon="6.56416">
        <ele>327.5</ele>
        <time>2025-01-19T14:16:48Z</time>
      </trkpt>
      <trkpt lat="48.24929" lon="6.56415">
        <ele>327.7</ele>
        <time>2025-01-19T14:16:56Z</time>
      </trkpt>
      <trkpt lat="48.2492" lon="6.56414">
        <ele>327.9</ele>
        <time>2025-01-19T14:17:04Z</time>
      </trkpt>
      <trkpt lat="48.24911" lon="6.56413">
        <ele>328.2</ele>
        <time>2025-01-19T14:17:12Z</time>
      </trkpt>
      <trkpt lat="48.24901" lon="6.56413">
        <ele>328.5</ele>
        <time>2025-01-19T14:17:21Z</time>
      </trkpt>
      <trkpt lat="48.24892" lon="6.56411">
        <ele>328.8</ele>
        <time>2025-01-19T14:17:29Z</time>
      </trkpt>
      <trkpt lat="48.24883" lon="6.5641">
        <ele>329.2</ele>
        <time>2025-01-19T14:17:37Z</time>
      </trkpt>
      <trkpt lat="48.24874" lon="6.5641">
        <ele>329.7</ele>
        <time>2025-01-19T14:17:45Z</time>
      </trkpt>
      <trkpt lat="48.24865" lon="6.56408">
        <ele>330.2</ele>
        <time>2025-01-19T14:17:53Z</time>
      </trkpt>
      <trkpt lat="48.24855" lon="6.56407">
        <ele>330.7</ele>
        <time>2025-01-19T14:18:01Z</time>
      </trkpt>
      <trkpt lat="48.24846" lon="6.56405">
        <ele>331.3</ele>
        <time>2025-01-19T14:18:09Z</time>
      </trkpt>
      <trkpt lat="48.24836" lon="6.56403">
        <ele>331.9</ele>
        <time>2025-01-19T14:18:17Z</time>
      </trkpt>
      <trkpt lat="48.24827" lon="6.56401">
        <ele>332.4</ele>
        <time>2025-01-19T14:18:25Z</time>
      </trkpt>
      <trkpt lat="48.24818" lon="6.56399">
        <ele>332.8</ele>
        <time>2025-01-19T14:18:33Z</time>
      </trkpt>
      <trkpt lat="48.24808" lon="6.56398">
        <ele>333.1</ele>
        <time>2025-01-19T14:18:41Z</time>
      </trkpt>
      <trkpt lat="48.24799" lon="6.56398">
        <ele>333.4</ele>
        <time>2025-01-19T14:18:49Z</time>
      </trkpt>
      <trkpt lat="48.24789" lon="6.56395">
        <ele>333.6</ele>
        <time>2025-01-19T14:18:57Z</time>
      </trkpt>
      <trkpt lat="48.2478" lon="6.56393">
        <ele>333.8</ele>
        <time>2025-01-19T14:19:05Z</time>
      </trkpt>
      <trkpt lat="48.24771" lon="6.56391">
        <ele>333.9</ele>
        <time>2025-01-19T14:19:13Z</time>
      </trkpt>
      <trkpt lat="48.24761" lon="6.56389">
        <ele>334.1</ele>
        <time>2025-01-19T14:19:21Z</time>
      </trkpt>
      <trkpt lat="48.24752" lon="6.56388">
        <ele>334.1</ele>
        <time>2025-01-19T14:19:29Z</time>
      </trkpt>
      <trkpt lat="48.24743" lon="6.56387">
        <ele>334.2</ele>
        <time>2025-01-19T14:19:37Z</time>
      </trkpt>
      <trkpt lat="48.24733" lon="6.56386">
        <ele>334.3</ele>
        <time>2025-01-19T14:19:45Z</time>
      </trkpt>
      <trkpt lat="48.24724" lon="6.56386">
        <ele>334.4</ele>
        <time>2025-01-19T14:19:53Z</time>
      </trkpt>
      <trkpt lat="48.24714" lon="6.56386">
        <ele>334.6</ele>
        <time>2025-01-19T14:20:02Z</time>
      </trkpt>
      <trkpt lat="48.24705" lon="6.56386">
        <ele>334.7</ele>
        <time>2025-01-19T14:20:09Z</time>
      </trkpt>
      <trkpt lat="48.24696" lon="6.56386">
        <ele>334.8</ele>
        <time>2025-01-19T14:20:17Z</time>
      </trkpt>
      <trkpt lat="48.24687" lon="6.56387">
        <ele>335</ele>
        <time>2025-01-19T14:20:25Z</time>
      </trkpt>
      <trkpt lat="48.24678" lon="6.56388">
        <ele>335.2</ele>
        <time>2025-01-19T14:20:33Z</time>
      </trkpt>
      <trkpt lat="48.24669" lon="6.56388">
        <ele>335.4</ele>
        <time>2025-01-19T14:20:41Z</time>
      </trkpt>
      <trkpt lat="48.24659" lon="6.56388">
        <ele>335.7</ele>
        <time>2025-01-19T14:20:49Z</time>
      </trkpt>
      <trkpt lat="48.2465" lon="6.56389">
        <ele>336</ele>
        <time>2025-01-19T14:20:57Z</time>
      </trkpt>
      <trkpt lat="48.24641" lon="6.5639">
        <ele>336.2</ele>
        <time>2025-01-19T14:21:05Z</time>
      </trkpt>
      <trkpt lat="48.24632" lon="6.5639">
        <ele>336.5</ele>
        <time>2025-01-19T14:21:13Z</time>
      </trkpt>
      <trkpt lat="48.24623" lon="6.56391">
        <ele>336.8</ele>
        <time>2025-01-19T14:21:21Z</time>
      </trkpt>
      <trkpt lat="48.24614" lon="6.5639">
        <ele>337.1</ele>
        <time>2025-01-19T14:21:29Z</time>
      </trkpt>
      <trkpt lat="48.24604" lon="6.56387">
        <ele>337.4</ele>
        <time>2025-01-19T14:21:37Z</time>
      </trkpt>
      <trkpt lat="48.24596" lon="6.56382">
        <ele>337.8</ele>
        <time>2025-01-19T14:21:45Z</time>
      </trkpt>
      <trkpt lat="48.24588" lon="6.56374">
        <ele>338.3</ele>
        <time>2025-01-19T14:21:53Z</time>
      </trkpt>
      <trkpt lat="48.24581" lon="6.56364">
        <ele>338.8</ele>
        <time>2025-01-19T14:22:02Z</time>
      </trkpt>
      <trkpt lat="48.24573" lon="6.56355">
        <ele>339.4</ele>
        <time>2025-01-19T14:22:10Z</time>
      </trkpt>
      <trkpt lat="48.24567" lon="6.56345">
        <ele>339.9</ele>
        <time>2025-01-19T14:22:18Z</time>
      </trkpt>
      <trkpt lat="48.2456" lon="6.56335">
        <ele>340.3</ele>
        <time>2025-01-19T14:22:26Z</time>
      </trkpt>
      <trkpt lat="48.24553" lon="6.56325">
        <ele>340.7</ele>
        <time>2025-01-19T14:22:34Z</time>
      </trkpt>
      <trkpt lat="48.24546" lon="6.56315">
        <ele>341</ele>
        <time>2025-01-19T14:22:42Z</time>
      </trkpt>
      <trkpt lat="48.24539" lon="6.56305">
        <ele>341.1</ele>
        <time>2025-01-19T14:22:51Z</time>
      </trkpt>
      <trkpt lat="48.24531" lon="6.56298">
        <ele>341.3</ele>
        <time>2025-01-19T14:22:59Z</time>
      </trkpt>
      <trkpt lat="48.24523" lon="6.56292">
        <ele>341.3</ele>
        <time>2025-01-19T14:23:07Z</time>
      </trkpt>
      <trkpt lat="48.24515" lon="6.56288">
        <ele>341.4</ele>
        <time>2025-01-19T14:23:15Z</time>
      </trkpt>
      <trkpt lat="48.24506" lon="6.56284">
        <ele>341.4</ele>
        <time>2025-01-19T14:23:23Z</time>
      </trkpt>
      <trkpt lat="48.24496" lon="6.5628">
        <ele>341.4</ele>
        <time>2025-01-19T14:23:31Z</time>
      </trkpt>
      <trkpt lat="48.24487" lon="6.56277">
        <ele>341.5</ele>
        <time>2025-01-19T14:23:39Z</time>
      </trkpt>
      <trkpt lat="48.24478" lon="6.56274">
        <ele>341.4</ele>
        <time>2025-01-19T14:23:47Z</time>
      </trkpt>
      <trkpt lat="48.24469" lon="6.56271">
        <ele>341.4</ele>
        <time>2025-01-19T14:23:55Z</time>
      </trkpt>
      <trkpt lat="48.2446" lon="6.56268">
        <ele>341.3</ele>
        <time>2025-01-19T14:24:03Z</time>
      </trkpt>
      <trkpt lat="48.24451" lon="6.56264">
        <ele>341.2</ele>
        <time>2025-01-19T14:24:11Z</time>
      </trkpt>
      <trkpt lat="48.24442" lon="6.5626">
        <ele>341.1</ele>
        <time>2025-01-19T14:24:19Z</time>
      </trkpt>
      <trkpt lat="48.24433" lon="6.56256">
        <ele>340.9</ele>
        <time>2025-01-19T14:24:27Z</time>
      </trkpt>
      <trkpt lat="48.24424" lon="6.56251">
        <ele>340.8</ele>
        <time>2025-01-19T14:24:35Z</time>
      </trkpt>
      <trkpt lat="48.24415" lon="6.56247">
        <ele>340.6</ele>
        <time>2025-01-19T14:24:43Z</time>
      </trkpt>
      <trkpt lat="48.24406" lon="6.56242">
        <ele>340.4</ele>
        <time>2025-01-19T14:24:51Z</time>
      </trkpt>
      <trkpt lat="48.24397" lon="6.56238">
        <ele>340.2</ele>
        <time>2025-01-19T14:24:59Z</time>
      </trkpt>
      <trkpt lat="48.24388" lon="6.56233">
        <ele>340.1</ele>
        <time>2025-01-19T14:25:07Z</time>
      </trkpt>
      <trkpt lat="48.24379" lon="6.5623">
        <ele>339.9</ele>
        <time>2025-01-19T14:25:15Z</time>
      </trkpt>
      <trkpt lat="48.2437" lon="6.56227">
        <ele>339.7</ele>
        <time>2025-01-19T14:25:24Z</time>
      </trkpt>
      <trkpt lat="48.2436" lon="6.56225">
        <ele>339.5</ele>
        <time>2025-01-19T14:25:33Z</time>
      </trkpt>
      <trkpt lat="48.24351" lon="6.56222">
        <ele>339.4</ele>
        <time>2025-01-19T14:25:41Z</time>
      </trkpt>
      <trkpt lat="48.24342" lon="6.5622">
        <ele>339.2</ele>
        <time>2025-01-19T14:25:49Z</time>
      </trkpt>
      <trkpt lat="48.24332" lon="6.56217">
        <ele>339</ele>
        <time>2025-01-19T14:25:57Z</time>
      </trkpt>
      <trkpt lat="48.24323" lon="6.56214">
        <ele>338.8</ele>
        <time>2025-01-19T14:26:05Z</time>
      </trkpt>
      <trkpt lat="48.24314" lon="6.5621">
        <ele>338.6</ele>
        <time>2025-01-19T14:26:13Z</time>
      </trkpt>
      <trkpt lat="48.24304" lon="6.56207">
        <ele>338.3</ele>
        <time>2025-01-19T14:26:21Z</time>
      </trkpt>
      <trkpt lat="48.24295" lon="6.56205">
        <ele>338.1</ele>
        <time>2025-01-19T14:26:29Z</time>
      </trkpt>
      <trkpt lat="48.24285" lon="6.56202">
        <ele>337.8</ele>
        <time>2025-01-19T14:26:37Z</time>
      </trkpt>
      <trkpt lat="48.24276" lon="6.56198">
        <ele>337.5</ele>
        <time>2025-01-19T14:26:45Z</time>
      </trkpt>
      <trkpt lat="48.24267" lon="6.56195">
        <ele>337.2</ele>
        <time>2025-01-19T14:26:53Z</time>
      </trkpt>
      <trkpt lat="48.24258" lon="6.56192">
        <ele>336.9</ele>
        <time>2025-01-19T14:27:01Z</time>
      </trkpt>
      <trkpt lat="48.24248" lon="6.5619">
        <ele>336.5</ele>
        <time>2025-01-19T14:27:09Z</time>
      </trkpt>
      <trkpt lat="48.24239" lon="6.56187">
        <ele>336.1</ele>
        <time>2025-01-19T14:27:17Z</time>
      </trkpt>
      <trkpt lat="48.2423" lon="6.56183">
        <ele>335.8</ele>
        <time>2025-01-19T14:27:25Z</time>
      </trkpt>
      <trkpt lat="48.24221" lon="6.5618">
        <ele>335.4</ele>
        <time>2025-01-19T14:27:33Z</time>
      </trkpt>
      <trkpt lat="48.24211" lon="6.56177">
        <ele>335</ele>
        <time>2025-01-19T14:27:41Z</time>
      </trkpt>
      <trkpt lat="48.24202" lon="6.56173">
        <ele>334.5</ele>
        <time>2025-01-19T14:27:49Z</time>
      </trkpt>
      <trkpt lat="48.24193" lon="6.56171">
        <ele>334.1</ele>
        <time>2025-01-19T14:27:57Z</time>
      </trkpt>
      <trkpt lat="48.24184" lon="6.56167">
        <ele>333.6</ele>
        <time>2025-01-19T14:28:05Z</time>
      </trkpt>
      <trkpt lat="48.24175" lon="6.56165">
        <ele>333</ele>
        <time>2025-01-19T14:28:13Z</time>
      </trkpt>
      <trkpt lat="48.24165" lon="6.56162">
        <ele>332.5</ele>
        <time>2025-01-19T14:28:21Z</time>
      </trkpt>
      <trkpt lat="48.24156" lon="6.56159">
        <ele>332</ele>
        <time>2025-01-19T14:28:29Z</time>
      </trkpt>
      <trkpt lat="48.24146" lon="6.56156">
        <ele>331.5</ele>
        <time>2025-01-19T14:28:37Z</time>
      </trkpt>
      <trkpt lat="48.24137" lon="6.56152">
        <ele>331</ele>
        <time>2025-01-19T14:28:45Z</time>
      </trkpt>
      <trkpt lat="48.24129" lon="6.56145">
        <ele>330.5</ele>
        <time>2025-01-19T14:28:53Z</time>
      </trkpt>
      <trkpt lat="48.24121" lon="6.56137">
        <ele>330</ele>
        <time>2025-01-19T14:29:01Z</time>
      </trkpt>
      <trkpt lat="48.24114" lon="6.56127">
        <ele>329.5</ele>
        <time>2025-01-19T14:29:09Z</time>
      </trkpt>
      <trkpt lat="48.24107" lon="6.56116">
        <ele>329</ele>
        <time>2025-01-19T14:29:17Z</time>
      </trkpt>
      <trkpt lat="48.24101" lon="6.56105">
        <ele>328.6</ele>
        <time>2025-01-19T14:29:25Z</time>
      </trkpt>
      <trkpt lat="48.24095" lon="6.56095">
        <ele>328.2</ele>
        <time>2025-01-19T14:29:33Z</time>
      </trkpt>
      <trkpt lat="48.24089" lon="6.56083">
        <ele>327.9</ele>
        <time>2025-01-19T14:29:41Z</time>
      </trkpt>
      <trkpt lat="48.24084" lon="6.56071">
        <ele>327.6</ele>
        <time>2025-01-19T14:29:49Z</time>
      </trkpt>
      <trkpt lat="48.2408" lon="6.56059">
        <ele>327.4</ele>
        <time>2025-01-19T14:29:57Z</time>
      </trkpt>
      <trkpt lat="48.24076" lon="6.56046">
        <ele>327.3</ele>
        <time>2025-01-19T14:30:05Z</time>
      </trkpt>
      <trkpt lat="48.24072" lon="6.56033">
        <ele>327.2</ele>
        <time>2025-01-19T14:30:13Z</time>
      </trkpt>
      <trkpt lat="48.24068" lon="6.5602">
        <ele>327.1</ele>
        <time>2025-01-19T14:30:21Z</time>
      </trkpt>
      <trkpt lat="48.24065" lon="6.56007">
        <ele>327.1</ele>
        <time>2025-01-19T14:30:29Z</time>
      </trkpt>
      <trkpt lat="48.24062" lon="6.55993">
        <ele>327.2</ele>
        <time>2025-01-19T14:30:37Z</time>
      </trkpt>
      <trkpt lat="48.24059" lon="6.5598">
        <ele>327.4</ele>
        <time>2025-01-19T14:30:45Z</time>
      </trkpt>
      <trkpt lat="48.24055" lon="6.55967">
        <ele>327.6</ele>
        <time>2025-01-19T14:30:53Z</time>
      </trkpt>
      <trkpt lat="48.24051" lon="6.55954">
        <ele>327.8</ele>
        <time>2025-01-19T14:31:01Z</time>
      </trkpt>
      <trkpt lat="48.24046" lon="6.55942">
        <ele>328.1</ele>
        <time>2025-01-19T14:31:09Z</time>
      </trkpt>
      <trkpt lat="48.24041" lon="6.5593">
        <ele>328.4</ele>
        <time>2025-01-19T14:31:17Z</time>
      </trkpt>
      <trkpt lat="48.24035" lon="6.55919">
        <ele>328.7</ele>
        <time>2025-01-19T14:31:25Z</time>
      </trkpt>
      <trkpt lat="48.24028" lon="6.55909">
        <ele>329.1</ele>
        <time>2025-01-19T14:31:33Z</time>
      </trkpt>
      <trkpt lat="48.24022" lon="6.55899">
        <ele>329.4</ele>
        <time>2025-01-19T14:31:41Z</time>
      </trkpt>
      <trkpt lat="48.24015" lon="6.5589">
        <ele>329.7</ele>
        <time>2025-01-19T14:31:49Z</time>
      </trkpt>
      <trkpt lat="48.24008" lon="6.55881">
        <ele>330</ele>
        <time>2025-01-19T14:31:57Z</time>
      </trkpt>
      <trkpt lat="48.24" lon="6.55873">
        <ele>330.2</ele>
        <time>2025-01-19T14:32:05Z</time>
      </trkpt>
      <trkpt lat="48.23991" lon="6.55866">
        <ele>330.3</ele>
        <time>2025-01-19T14:32:14Z</time>
      </trkpt>
      <trkpt lat="48.23982" lon="6.55859">
        <ele>330.3</ele>
        <time>2025-01-19T14:32:23Z</time>
      </trkpt>
      <trkpt lat="48.23975" lon="6.55852">
        <ele>330.3</ele>
        <time>2025-01-19T14:32:31Z</time>
      </trkpt>
      <trkpt lat="48.23966" lon="6.55846">
        <ele>330.3</ele>
        <time>2025-01-19T14:32:39Z</time>
      </trkpt>
      <trkpt lat="48.23958" lon="6.55839">
        <ele>330.3</ele>
        <time>2025-01-19T14:32:47Z</time>
      </trkpt>
      <trkpt lat="48.2395" lon="6.55833">
        <ele>330.4</ele>
        <time>2025-01-19T14:32:55Z</time>
      </trkpt>
      <trkpt lat="48.23941" lon="6.55827">
        <ele>330.4</ele>
        <time>2025-01-19T14:33:03Z</time>
      </trkpt>
      <trkpt lat="48.23931" lon="6.55821">
        <ele>330.5</ele>
        <time>2025-01-19T14:33:11Z</time>
      </trkpt>
      <trkpt lat="48.23922" lon="6.55816">
        <ele>330.6</ele>
        <time>2025-01-19T14:33:19Z</time>
      </trkpt>
      <trkpt lat="48.23914" lon="6.55811">
        <ele>330.7</ele>
        <time>2025-01-19T14:33:27Z</time>
      </trkpt>
      <trkpt lat="48.23905" lon="6.55806">
        <ele>330.8</ele>
        <time>2025-01-19T14:33:35Z</time>
      </trkpt>
      <trkpt lat="48.23897" lon="6.558">
        <ele>330.9</ele>
        <time>2025-01-19T14:33:43Z</time>
      </trkpt>
      <trkpt lat="48.23888" lon="6.55792">
        <ele>331</ele>
        <time>2025-01-19T14:33:52Z</time>
      </trkpt>
      <trkpt lat="48.23881" lon="6.55784">
        <ele>331.2</ele>
        <time>2025-01-19T14:34:00Z</time>
      </trkpt>
      <trkpt lat="48.23874" lon="6.55776">
        <ele>331.4</ele>
        <time>2025-01-19T14:34:08Z</time>
      </trkpt>
      <trkpt lat="48.23866" lon="6.55766">
        <ele>331.5</ele>
        <time>2025-01-19T14:34:16Z</time>
      </trkpt>
      <trkpt lat="48.23859" lon="6.55756">
        <ele>331.6</ele>
        <time>2025-01-19T14:34:24Z</time>
      </trkpt>
      <trkpt lat="48.23853" lon="6.55747">
        <ele>331.7</ele>
        <time>2025-01-19T14:34:32Z</time>
      </trkpt>
      <trkpt lat="48.23846" lon="6.55737">
        <ele>331.8</ele>
        <time>2025-01-19T14:34:40Z</time>
      </trkpt>
      <trkpt lat="48.2384" lon="6.55727">
        <ele>331.9</ele>
        <time>2025-01-19T14:34:48Z</time>
      </trkpt>
      <trkpt lat="48.23833" lon="6.55717">
        <ele>332</ele>
        <time>2025-01-19T14:34:57Z</time>
      </trkpt>
      <trkpt lat="48.23826" lon="6.55707">
        <ele>332</ele>
        <time>2025-01-19T14:35:05Z</time>
      </trkpt>
      <trkpt lat="48.23819" lon="6.55698">
        <ele>332.1</ele>
        <time>2025-01-19T14:35:13Z</time>
      </trkpt>
      <trkpt lat="48.23812" lon="6.55688">
        <ele>332.2</ele>
        <time>2025-01-19T14:35:21Z</time>
      </trkpt>
      <trkpt lat="48.23806" lon="6.55678">
        <ele>332.3</ele>
        <time>2025-01-19T14:35:29Z</time>
      </trkpt>
      <trkpt lat="48.23799" lon="6.55668">
        <ele>332.4</ele>
        <time>2025-01-19T14:35:37Z</time>
      </trkpt>
      <trkpt lat="48.23792" lon="6.55658">
        <ele>332.5</ele>
        <time>2025-01-19T14:35:45Z</time>
      </trkpt>
      <trkpt lat="48.23786" lon="6.55647">
        <ele>332.5</ele>
        <time>2025-01-19T14:35:53Z</time>
      </trkpt>
      <trkpt lat="48.2378" lon="6.55636">
        <ele>332.5</ele>
        <time>2025-01-19T14:36:01Z</time>
      </trkpt>
      <trkpt lat="48.23775" lon="6.55624">
        <ele>332.6</ele>
        <time>2025-01-19T14:36:09Z</time>
      </trkpt>
      <trkpt lat="48.2377" lon="6.55612">
        <ele>332.7</ele>
        <time>2025-01-19T14:36:17Z</time>
      </trkpt>
      <trkpt lat="48.23765" lon="6.55601">
        <ele>332.7</ele>
        <time>2025-01-19T14:36:25Z</time>
      </trkpt>
      <trkpt lat="48.2376" lon="6.55589">
        <ele>332.6</ele>
        <time>2025-01-19T14:36:33Z</time>
      </trkpt>
      <trkpt lat="48.23755" lon="6.55577">
        <ele>332.6</ele>
        <time>2025-01-19T14:36:41Z</time>
      </trkpt>
      <trkpt lat="48.2375" lon="6.55566">
        <ele>332.6</ele>
        <time>2025-01-19T14:36:49Z</time>
      </trkpt>
      <trkpt lat="48.23744" lon="6.55555">
        <ele>332.6</ele>
        <time>2025-01-19T14:36:57Z</time>
      </trkpt>
      <trkpt lat="48.23738" lon="6.55543">
        <ele>332.7</ele>
        <time>2025-01-19T14:37:05Z</time>
      </trkpt>
      <trkpt lat="48.23732" lon="6.55532">
        <ele>332.7</ele>
        <time>2025-01-19T14:37:13Z</time>
      </trkpt>
      <trkpt lat="48.23726" lon="6.55521">
        <ele>332.8</ele>
        <time>2025-01-19T14:37:21Z</time>
      </trkpt>
      <trkpt lat="48.2372" lon="6.55509">
        <ele>332.8</ele>
        <time>2025-01-19T14:37:29Z</time>
      </trkpt>
      <trkpt lat="48.23714" lon="6.55498">
        <ele>332.9</ele>
        <time>2025-01-19T14:37:37Z</time>
      </trkpt>
      <trkpt lat="48.23708" lon="6.55488">
        <ele>333</ele>
        <time>2025-01-19T14:37:45Z</time>
      </trkpt>
      <trkpt lat="48.23702" lon="6.55476">
        <ele>333.1</ele>
        <time>2025-01-19T14:37:53Z</time>
      </trkpt>
      <trkpt lat="48.23696" lon="6.55465">
        <ele>333.2</ele>
        <time>2025-01-19T14:38:01Z</time>
      </trkpt>
      <trkpt lat="48.2369" lon="6.55454">
        <ele>333.3</ele>
        <time>2025-01-19T14:38:09Z</time>
      </trkpt>
      <trkpt lat="48.23685" lon="6.55442">
        <ele>333.4</ele>
        <time>2025-01-19T14:38:17Z</time>
      </trkpt>
      <trkpt lat="48.2368" lon="6.5543">
        <ele>333.5</ele>
        <time>2025-01-19T14:38:25Z</time>
      </trkpt>
      <trkpt lat="48.23674" lon="6.55418">
        <ele>333.6</ele>
        <time>2025-01-19T14:38:33Z</time>
      </trkpt>
      <trkpt lat="48.23669" lon="6.55406">
        <ele>333.7</ele>
        <time>2025-01-19T14:38:41Z</time>
      </trkpt>
      <trkpt lat="48.23664" lon="6.55393">
        <ele>333.9</ele>
        <time>2025-01-19T14:38:49Z</time>
      </trkpt>
      <trkpt lat="48.2366" lon="6.55381">
        <ele>334.2</ele>
        <time>2025-01-19T14:38:57Z</time>
      </trkpt>
      <trkpt lat="48.23654" lon="6.55369">
        <ele>334.4</ele>
        <time>2025-01-19T14:39:05Z</time>
      </trkpt>
      <trkpt lat="48.23648" lon="6.55359">
        <ele>334.7</ele>
        <time>2025-01-19T14:39:13Z</time>
      </trkpt>
      <trkpt lat="48.23639" lon="6.55352">
        <ele>335</ele>
        <time>2025-01-19T14:39:21Z</time>
      </trkpt>
      <trkpt lat="48.23629" lon="6.5535">
        <ele>335.3</ele>
        <time>2025-01-19T14:39:29Z</time>
      </trkpt>
      <trkpt lat="48.23619" lon="6.55351">
        <ele>335.6</ele>
        <time>2025-01-19T14:39:37Z</time>
      </trkpt>
      <trkpt lat="48.23609" lon="6.55352">
        <ele>336</ele>
        <time>2025-01-19T14:39:46Z</time>
      </trkpt>
      <trkpt lat="48.23599" lon="6.55353">
        <ele>336.4</ele>
        <time>2025-01-19T14:39:54Z</time>
      </trkpt>
      <trkpt lat="48.2359" lon="6.55354">
        <ele>336.9</ele>
        <time>2025-01-19T14:40:02Z</time>
      </trkpt>
      <trkpt lat="48.2358" lon="6.55354">
        <ele>337.4</ele>
        <time>2025-01-19T14:40:10Z</time>
      </trkpt>
      <trkpt lat="48.2357" lon="6.55355">
        <ele>337.8</ele>
        <time>2025-01-19T14:40:18Z</time>
      </trkpt>
      <trkpt lat="48.23561" lon="6.55354">
        <ele>338.1</ele>
        <time>2025-01-19T14:40:25Z</time>
      </trkpt>
      <trkpt lat="48.23552" lon="6.55351">
        <ele>338.3</ele>
        <time>2025-01-19T14:40:33Z</time>
      </trkpt>
      <trkpt lat="48.23544" lon="6.55342">
        <ele>338.5</ele>
        <time>2025-01-19T14:40:41Z</time>
      </trkpt>
      <trkpt lat="48.23538" lon="6.55332">
        <ele>338.7</ele>
        <time>2025-01-19T14:40:48Z</time>
      </trkpt>
      <trkpt lat="48.23533" lon="6.5532">
        <ele>338.8</ele>
        <time>2025-01-19T14:40:55Z</time>
      </trkpt>
      <trkpt lat="48.23528" lon="6.55307">
        <ele>339</ele>
        <time>2025-01-19T14:41:03Z</time>
      </trkpt>
      <trkpt lat="48.23525" lon="6.55292">
        <ele>339</ele>
        <time>2025-01-19T14:41:11Z</time>
      </trkpt>
      <trkpt lat="48.23521" lon="6.55279">
        <ele>339.1</ele>
        <time>2025-01-19T14:41:19Z</time>
      </trkpt>
      <trkpt lat="48.23519" lon="6.55266">
        <ele>339.1</ele>
        <time>2025-01-19T14:41:27Z</time>
      </trkpt>
      <trkpt lat="48.23517" lon="6.55252">
        <ele>339.1</ele>
        <time>2025-01-19T14:41:35Z</time>
      </trkpt>
      <trkpt lat="48.23514" lon="6.55238">
        <ele>339.2</ele>
        <time>2025-01-19T14:41:43Z</time>
      </trkpt>
      <trkpt lat="48.23512" lon="6.55223">
        <ele>339.2</ele>
        <time>2025-01-19T14:41:51Z</time>
      </trkpt>
      <trkpt lat="48.23509" lon="6.55209">
        <ele>339.3</ele>
        <time>2025-01-19T14:41:59Z</time>
      </trkpt>
      <trkpt lat="48.23506" lon="6.55195">
        <ele>339.4</ele>
        <time>2025-01-19T14:42:07Z</time>
      </trkpt>
      <trkpt lat="48.23503" lon="6.5518">
        <ele>339.5</ele>
        <time>2025-01-19T14:42:15Z</time>
      </trkpt>
      <trkpt lat="48.23501" lon="6.55166">
        <ele>339.7</ele>
        <time>2025-01-19T14:42:23Z</time>
      </trkpt>
      <trkpt lat="48.23499" lon="6.55151">
        <ele>339.8</ele>
        <time>2025-01-19T14:42:31Z</time>
      </trkpt>
      <trkpt lat="48.23496" lon="6.55137">
        <ele>340</ele>
        <time>2025-01-19T14:42:39Z</time>
      </trkpt>
      <trkpt lat="48.23493" lon="6.55123">
        <ele>340.1</ele>
        <time>2025-01-19T14:42:47Z</time>
      </trkpt>
      <trkpt lat="48.23488" lon="6.5511">
        <ele>340.3</ele>
        <time>2025-01-19T14:42:55Z</time>
      </trkpt>
      <trkpt lat="48.23483" lon="6.55097">
        <ele>340.6</ele>
        <time>2025-01-19T14:43:03Z</time>
      </trkpt>
      <trkpt lat="48.23478" lon="6.55085">
        <ele>340.8</ele>
        <time>2025-01-19T14:43:11Z</time>
      </trkpt>
      <trkpt lat="48.23472" lon="6.55074">
        <ele>341</ele>
        <time>2025-01-19T14:43:19Z</time>
      </trkpt>
      <trkpt lat="48.23466" lon="6.55063">
        <ele>341.2</ele>
        <time>2025-01-19T14:43:27Z</time>
      </trkpt>
      <trkpt lat="48.2346" lon="6.55051">
        <ele>341.5</ele>
        <time>2025-01-19T14:43:35Z</time>
      </trkpt>
      <trkpt lat="48.23454" lon="6.55038">
        <ele>341.6</ele>
        <time>2025-01-19T14:43:44Z</time>
      </trkpt>
      <trkpt lat="48.23448" lon="6.55027">
        <ele>341.7</ele>
        <time>2025-01-19T14:43:52Z</time>
      </trkpt>
      <trkpt lat="48.23443" lon="6.55014">
        <ele>341.8</ele>
        <time>2025-01-19T14:44:00Z</time>
      </trkpt>
      <trkpt lat="48.23438" lon="6.55002">
        <ele>342</ele>
        <time>2025-01-19T14:44:08Z</time>
      </trkpt>
      <trkpt lat="48.23433" lon="6.5499">
        <ele>342.2</ele>
        <time>2025-01-19T14:44:16Z</time>
      </trkpt>
      <trkpt lat="48.23428" lon="6.54978">
        <ele>342.4</ele>
        <time>2025-01-19T14:44:24Z</time>
      </trkpt>
      <trkpt lat="48.23423" lon="6.54965">
        <ele>342.6</ele>
        <time>2025-01-19T14:44:32Z</time>
      </trkpt>
      <trkpt lat="48.23417" lon="6.54953">
        <ele>342.8</ele>
        <time>2025-01-19T14:44:40Z</time>
      </trkpt>
      <trkpt lat="48.23412" lon="6.5494">
        <ele>342.9</ele>
        <time>2025-01-19T14:44:48Z</time>
      </trkpt>
      <trkpt lat="48.23406" lon="6.54927">
        <ele>343</ele>
        <time>2025-01-19T14:44:56Z</time>
      </trkpt>
      <trkpt lat="48.23401" lon="6.54915">
        <ele>343.1</ele>
        <time>2025-01-19T14:45:04Z</time>
      </trkpt>
      <trkpt lat="48.23396" lon="6.54902">
        <ele>343</ele>
        <time>2025-01-19T14:45:12Z</time>
      </trkpt>
      <trkpt lat="48.23391" lon="6.54889">
        <ele>342.9</ele>
        <time>2025-01-19T14:45:20Z</time>
      </trkpt>
      <trkpt lat="48.23385" lon="6.54877">
        <ele>342.7</ele>
        <time>2025-01-19T14:45:28Z</time>
      </trkpt>
      <trkpt lat="48.2338" lon="6.54864">
        <ele>342.5</ele>
        <time>2025-01-19T14:45:36Z</time>
      </trkpt>
      <trkpt lat="48.23375" lon="6.54851">
        <ele>342.2</ele>
        <time>2025-01-19T14:45:44Z</time>
      </trkpt>
      <trkpt lat="48.23369" lon="6.54839">
        <ele>341.9</ele>
        <time>2025-01-19T14:45:52Z</time>
      </trkpt>
      <trkpt lat="48.23364" lon="6.54826">
        <ele>341.6</ele>
        <time>2025-01-19T14:46:00Z</time>
      </trkpt>
      <trkpt lat="48.23358" lon="6.54814">
        <ele>341.3</ele>
        <time>2025-01-19T14:46:08Z</time>
      </trkpt>
      <trkpt lat="48.23353" lon="6.54801">
        <ele>341</ele>
        <time>2025-01-19T14:46:16Z</time>
      </trkpt>
      <trkpt lat="48.23347" lon="6.54788">
        <ele>340.8</ele>
        <time>2025-01-19T14:46:24Z</time>
      </trkpt>
      <trkpt lat="48.23342" lon="6.54775">
        <ele>340.6</ele>
        <time>2025-01-19T14:46:32Z</time>
      </trkpt>
      <trkpt lat="48.23337" lon="6.54762">
        <ele>340.4</ele>
        <time>2025-01-19T14:46:40Z</time>
      </trkpt>
      <trkpt lat="48.23331" lon="6.5475">
        <ele>340.3</ele>
        <time>2025-01-19T14:46:48Z</time>
      </trkpt>
      <trkpt lat="48.23325" lon="6.54737">
        <ele>340.2</ele>
        <time>2025-01-19T14:46:56Z</time>
      </trkpt>
      <trkpt lat="48.2332" lon="6.54726">
        <ele>340.1</ele>
        <time>2025-01-19T14:47:03Z</time>
      </trkpt>
      <trkpt lat="48.23314" lon="6.54713">
        <ele>340</ele>
        <time>2025-01-19T14:47:11Z</time>
      </trkpt>
      <trkpt lat="48.23308" lon="6.54701">
        <ele>339.9</ele>
        <time>2025-01-19T14:47:19Z</time>
      </trkpt>
      <trkpt lat="48.23301" lon="6.5469">
        <ele>339.8</ele>
        <time>2025-01-19T14:47:27Z</time>
      </trkpt>
      <trkpt lat="48.23295" lon="6.54679">
        <ele>339.8</ele>
        <time>2025-01-19T14:47:35Z</time>
      </trkpt>
      <trkpt lat="48.23288" lon="6.54669">
        <ele>339.7</ele>
        <time>2025-01-19T14:47:43Z</time>
      </trkpt>
      <trkpt lat="48.23281" lon="6.5466">
        <ele>339.7</ele>
        <time>2025-01-19T14:47:51Z</time>
      </trkpt>
      <trkpt lat="48.23274" lon="6.5465">
        <ele>339.7</ele>
        <time>2025-01-19T14:47:59Z</time>
      </trkpt>
      <trkpt lat="48.23267" lon="6.5464">
        <ele>339.7</ele>
        <time>2025-01-19T14:48:07Z</time>
      </trkpt>
      <trkpt lat="48.2326" lon="6.54629">
        <ele>339.7</ele>
        <time>2025-01-19T14:48:15Z</time>
      </trkpt>
      <trkpt lat="48.23253" lon="6.54618">
        <ele>339.6</ele>
        <time>2025-01-19T14:48:23Z</time>
      </trkpt>
      <trkpt lat="48.23247" lon="6.54608">
        <ele>339.6</ele>
        <time>2025-01-19T14:48:30Z</time>
      </trkpt>
      <trkpt lat="48.2324" lon="6.54597">
        <ele>339.6</ele>
        <time>2025-01-19T14:48:37Z</time>
      </trkpt>
      <trkpt lat="48.23235" lon="6.54585">
        <ele>339.6</ele>
        <time>2025-01-19T14:48:44Z</time>
      </trkpt>
      <trkpt lat="48.23232" lon="6.54571">
        <ele>339.7</ele>
        <time>2025-01-19T14:48:52Z</time>
      </trkpt>
      <trkpt lat="48.23228" lon="6.54557">
        <ele>339.7</ele>
        <time>2025-01-19T14:49:00Z</time>
      </trkpt>
      <trkpt lat="48.23225" lon="6.54544">
        <ele>339.8</ele>
        <time>2025-01-19T14:49:08Z</time>
      </trkpt>
      <trkpt lat="48.23221" lon="6.5453">
        <ele>339.9</ele>
        <time>2025-01-19T14:49:16Z</time>
      </trkpt>
      <trkpt lat="48.23218" lon="6.54517">
        <ele>340</ele>
        <time>2025-01-19T14:49:23Z</time>
      </trkpt>
      <trkpt lat="48.23214" lon="6.54505">
        <ele>340.1</ele>
        <time>2025-01-19T14:49:30Z</time>
      </trkpt>
      <trkpt lat="48.23209" lon="6.54492">
        <ele>340.3</ele>
        <time>2025-01-19T14:49:38Z</time>
      </trkpt>
      <trkpt lat="48.23203" lon="6.5448">
        <ele>340.5</ele>
        <time>2025-01-19T14:49:46Z</time>
      </trkpt>
      <trkpt lat="48.23197" lon="6.54468">
        <ele>340.6</ele>
        <time>2025-01-19T14:49:54Z</time>
      </trkpt>
      <trkpt lat="48.23191" lon="6.54456">
        <ele>340.7</ele>
        <time>2025-01-19T14:50:02Z</time>
      </trkpt>
      <trkpt lat="48.23185" lon="6.54445">
        <ele>340.8</ele>
        <time>2025-01-19T14:50:10Z</time>
      </trkpt>
      <trkpt lat="48.23178" lon="6.54435">
        <ele>340.9</ele>
        <time>2025-01-19T14:50:18Z</time>
      </trkpt>
      <trkpt lat="48.2317" lon="6.54426">
        <ele>340.9</ele>
        <time>2025-01-19T14:50:26Z</time>
      </trkpt>
      <trkpt lat="48.23163" lon="6.54416">
        <ele>340.9</ele>
        <time>2025-01-19T14:50:34Z</time>
      </trkpt>
      <trkpt lat="48.23155" lon="6.54407">
        <ele>340.9</ele>
        <time>2025-01-19T14:50:42Z</time>
      </trkpt>
      <trkpt lat="48.23147" lon="6.54399">
        <ele>340.8</ele>
        <time>2025-01-19T14:50:50Z</time>
      </trkpt>
      <trkpt lat="48.23139" lon="6.54392">
        <ele>340.7</ele>
        <time>2025-01-19T14:50:57Z</time>
      </trkpt>
      <trkpt lat="48.2313" lon="6.54384">
        <ele>340.7</ele>
        <time>2025-01-19T14:51:05Z</time>
      </trkpt>
      <trkpt lat="48.23123" lon="6.54376">
        <ele>340.6</ele>
        <time>2025-01-19T14:51:12Z</time>
      </trkpt>
      <trkpt lat="48.23115" lon="6.54367">
        <ele>340.6</ele>
        <time>2025-01-19T14:51:20Z</time>
      </trkpt>
      <trkpt lat="48.23107" lon="6.54357">
        <ele>340.5</ele>
        <time>2025-01-19T14:51:28Z</time>
      </trkpt>
      <trkpt lat="48.231" lon="6.54347">
        <ele>340.4</ele>
        <time>2025-01-19T14:51:36Z</time>
      </trkpt>
      <trkpt lat="48.23091" lon="6.54338">
        <ele>340.1</ele>
        <time>2025-01-19T14:51:44Z</time>
      </trkpt>
      <trkpt lat="48.23083" lon="6.54329">
        <ele>339.9</ele>
        <time>2025-01-19T14:51:52Z</time>
      </trkpt>
      <trkpt lat="48.23075" lon="6.54321">
        <ele>339.6</ele>
        <time>2025-01-19T14:52:00Z</time>
      </trkpt>
      <trkpt lat="48.23066" lon="6.54312">
        <ele>339.3</ele>
        <time>2025-01-19T14:52:08Z</time>
      </trkpt>
      <trkpt lat="48.23057" lon="6.54305">
        <ele>339</ele>
        <time>2025-01-19T14:52:16Z</time>
      </trkpt>
      <trkpt lat="48.23049" lon="6.54298">
        <ele>338.7</ele>
        <time>2025-01-19T14:52:24Z</time>
      </trkpt>
      <trkpt lat="48.23041" lon="6.54289">
        <ele>338.6</ele>
        <time>2025-01-19T14:52:31Z</time>
      </trkpt>
      <trkpt lat="48.23033" lon="6.5428">
        <ele>338.4</ele>
        <time>2025-01-19T14:52:39Z</time>
      </trkpt>
      <trkpt lat="48.23024" lon="6.54279">
        <ele>338.2</ele>
        <time>2025-01-19T14:52:47Z</time>
      </trkpt>
      <trkpt lat="48.23014" lon="6.54278">
        <ele>338.1</ele>
        <time>2025-01-19T14:52:55Z</time>
      </trkpt>
      <trkpt lat="48.23004" lon="6.54278">
        <ele>338.1</ele>
        <time>2025-01-19T14:53:03Z</time>
      </trkpt>
      <trkpt lat="48.22995" lon="6.54279">
        <ele>338.1</ele>
        <time>2025-01-19T14:53:11Z</time>
      </trkpt>
      <trkpt lat="48.22985" lon="6.54279">
        <ele>338.1</ele>
        <time>2025-01-19T14:53:18Z</time>
      </trkpt>
      <trkpt lat="48.22976" lon="6.54286">
        <ele>338.1</ele>
        <time>2025-01-19T14:53:26Z</time>
      </trkpt>
      <trkpt lat="48.22968" lon="6.54293">
        <ele>338.1</ele>
        <time>2025-01-19T14:53:33Z</time>
      </trkpt>
      <trkpt lat="48.22959" lon="6.54299">
        <ele>338</ele>
        <time>2025-01-19T14:53:41Z</time>
      </trkpt>
      <trkpt lat="48.2295" lon="6.54304">
        <ele>338</ele>
        <time>2025-01-19T14:53:48Z</time>
      </trkpt>
      <trkpt lat="48.22941" lon="6.54309">
        <ele>338.1</ele>
        <time>2025-01-19T14:53:56Z</time>
      </trkpt>
      <trkpt lat="48.22932" lon="6.54315">
        <ele>338.1</ele>
        <time>2025-01-19T14:54:04Z</time>
      </trkpt>
      <trkpt lat="48.22923" lon="6.5432">
        <ele>338.2</ele>
        <time>2025-01-19T14:54:12Z</time>
      </trkpt>
      <trkpt lat="48.22913" lon="6.54324">
        <ele>338.4</ele>
        <time>2025-01-19T14:54:20Z</time>
      </trkpt>
      <trkpt lat="48.22904" lon="6.54323">
        <ele>338.5</ele>
        <time>2025-01-19T14:54:27Z</time>
      </trkpt>
      <trkpt lat="48.22894" lon="6.54326">
        <ele>338.7</ele>
        <time>2025-01-19T14:54:35Z</time>
      </trkpt>
      <trkpt lat="48.22885" lon="6.54329">
        <ele>338.8</ele>
        <time>2025-01-19T14:54:43Z</time>
      </trkpt>
      <trkpt lat="48.22875" lon="6.54327">
        <ele>339</ele>
        <time>2025-01-19T14:54:53Z</time>
      </trkpt>
      <trkpt lat="48.22867" lon="6.5432">
        <ele>339.2</ele>
        <time>2025-01-19T14:55:00Z</time>
      </trkpt>
      <trkpt lat="48.22858" lon="6.54314">
        <ele>339.4</ele>
        <time>2025-01-19T14:55:08Z</time>
      </trkpt>
      <trkpt lat="48.2285" lon="6.54304">
        <ele>339.6</ele>
        <time>2025-01-19T14:55:16Z</time>
      </trkpt>
      <trkpt lat="48.22842" lon="6.54296">
        <ele>339.8</ele>
        <time>2025-01-19T14:55:25Z</time>
      </trkpt>
      <trkpt lat="48.22837" lon="6.54288">
        <ele>340</ele>
        <time>2025-01-19T14:55:37Z</time>
      </trkpt>
      <trkpt lat="48.22836" lon="6.54288">
        <ele>340</ele>
        <time>2025-01-19T14:55:53Z</time>
      </trkpt>
      <trkpt lat="48.22832" lon="6.54284">
        <ele>340.2</ele>
        <time>2025-01-19T14:56:02Z</time>
      </trkpt>
      <trkpt lat="48.2283" lon="6.54282">
        <ele>340.2</ele>
        <time>2025-01-19T14:56:12Z</time>
      </trkpt>
      <trkpt lat="48.22829" lon="6.54282">
        <ele>340.2</ele>
        <time>2025-01-19T14:56:13Z</time>
      </trkpt>
      <trkpt lat="48.22822" lon="6.54272">
        <ele>340.5</ele>
        <time>2025-01-19T14:56:23Z</time>
      </trkpt>
      <trkpt lat="48.22818" lon="6.54266">
        <ele>340.7</ele>
        <time>2025-01-19T14:56:33Z</time>
      </trkpt>
      <trkpt lat="48.22817" lon="6.54266">
        <ele>340.7</ele>
        <time>2025-01-19T14:56:38Z</time>
      </trkpt>
      <trkpt lat="48.22817" lon="6.54265">
        <ele>340.7</ele>
        <time>2025-01-19T14:56:40Z</time>
      </trkpt>
      <trkpt lat="48.22817" lon="6.54265">
        <ele>340.7</ele>
        <time>2025-01-19T14:56:41Z</time>
      </trkpt>
      <trkpt lat="48.22817" lon="6.54264">
        <ele>340.7</ele>
        <time>2025-01-19T14:56:42Z</time>
      </trkpt>
      <trkpt lat="48.22817" lon="6.54264">
        <ele>340.7</ele>
        <time>2025-01-19T14:56:45Z</time>
      </trkpt>
      <trkpt lat="48.22817" lon="6.54264">
        <ele>340.7</ele>
        <time>2025-01-19T14:56:46Z</time>
      </trkpt>
      <trkpt lat="48.22817" lon="6.54264">
        <ele>340.8</ele>
        <time>2025-01-19T14:57:07Z</time>
      </trkpt>
      <trkpt lat="48.22817" lon="6.54264">
        <ele>340.8</ele>
        <time>2025-01-19T14:57:09Z</time>
      </trkpt>
      <trkpt lat="48.22817" lon="6.54264">
        <ele>340.8</ele>
        <time>2025-01-19T14:57:10Z</time>
      </trkpt>
      <trkpt lat="48.22817" lon="6.54264">
        <ele>340.8</ele>
        <time>2025-01-19T14:57:11Z</time>
      </trkpt>
      <trkpt lat="48.22817" lon="6.54264">
        <ele>340.8</ele>
        <time>2025-01-19T14:57:40Z</time>
      </trkpt>
      <trkpt lat="48.22817" lon="6.54264">
        <ele>340.8</ele>
        <time>2025-01-19T14:57:41Z</time>
      </trkpt>
      <trkpt lat="48.22817" lon="6.54264">
        <ele>340.8</ele>
        <time>2025-01-19T14:57:49Z</time>
      </trkpt>
      <trkpt lat="48.22817" lon="6.54264">
        <ele>340.8</ele>
        <time>2025-01-19T14:57:50Z</time>
      </trkpt>
      <trkpt lat="48.22817" lon="6.54264">
        <ele>340.8</ele>
        <time>2025-01-19T14:58:02Z</time>
      </trkpt>
      <trkpt lat="48.22817" lon="6.54264">
        <ele>340.8</ele>
        <time>2025-01-19T14:58:03Z</time>
      </trkpt>
      <trkpt lat="48.22817" lon="6.54264">
        <ele>340.8</ele>
        <time>2025-01-19T14:58:04Z</time>
      </trkpt>
      <trkpt lat="48.22817" lon="6.54264">
        <ele>340.8</ele>
        <time>2025-01-19T14:58:05Z</time>
      </trkpt>
      <trkpt lat="48.22817" lon="6.54264">
        <ele>340.8</ele>
        <time>2025-01-19T14:58:06Z</time>
      </trkpt>
      <trkpt lat="48.22817" lon="6.54264">
        <ele>340.8</ele>
        <time>2025-01-19T14:58:07Z</time>
      </trkpt>
      <trkpt lat="48.22817" lon="6.54264">
        <ele>340.8</ele>
        <time>2025-01-19T14:58:08Z</time>
      </trkpt>
      <trkpt lat="48.22817" lon="6.54264">
        <ele>340.8</ele>
        <time>2025-01-19T14:58:09Z</time>
      </trkpt>
      <trkpt lat="48.22817" lon="6.54264">
        <ele>340.8</ele>
        <time>2025-01-19T14:58:10Z</time>
      </trkpt>
      <trkpt lat="48.22818" lon="6.54267">
        <ele>340.8</ele>
        <time>2025-01-19T14:58:31Z</time>
      </trkpt>
      <trkpt lat="48.22818" lon="6.54268">
        <ele>340.8</ele>
        <time>2025-01-19T14:58:32Z</time>
      </trkpt>
      <trkpt lat="48.22819" lon="6.54269">
        <ele>340.8</ele>
        <time>2025-01-19T14:58:33Z</time>
      </trkpt>
      <trkpt lat="48.22827" lon="6.54276">
        <ele>340.5</ele>
        <time>2025-01-19T14:58:41Z</time>
      </trkpt>
      <trkpt lat="48.22835" lon="6.54283">
        <ele>340.2</ele>
        <time>2025-01-19T14:58:49Z</time>
      </trkpt>
      <trkpt lat="48.22843" lon="6.5429">
        <ele>340</ele>
        <time>2025-01-19T14:58:56Z</time>
      </trkpt>
      <trkpt lat="48.22851" lon="6.54298">
        <ele>339.7</ele>
        <time>2025-01-19T14:59:04Z</time>
      </trkpt>
      <trkpt lat="48.22859" lon="6.54306">
        <ele>339.5</ele>
        <time>2025-01-19T14:59:12Z</time>
      </trkpt>
      <trkpt lat="48.22868" lon="6.54312">
        <ele>339.3</ele>
        <time>2025-01-19T14:59:20Z</time>
      </trkpt>
      <trkpt lat="48.22876" lon="6.54319">
        <ele>339.1</ele>
        <time>2025-01-19T14:59:28Z</time>
      </trkpt>
      <trkpt lat="48.22885" lon="6.54326">
        <ele>338.9</ele>
        <time>2025-01-19T14:59:37Z</time>
      </trkpt>
      <trkpt lat="48.22894" lon="6.54323">
        <ele>338.7</ele>
        <time>2025-01-19T14:59:46Z</time>
      </trkpt>
      <trkpt lat="48.22903" lon="6.54316">
        <ele>338.5</ele>
        <time>2025-01-19T14:59:55Z</time>
      </trkpt>
      <trkpt lat="48.22913" lon="6.54311">
        <ele>338.3</ele>
        <time>2025-01-19T15:00:04Z</time>
      </trkpt>
      <trkpt lat="48.22922" lon="6.54308">
        <ele>338.2</ele>
        <time>2025-01-19T15:00:12Z</time>
      </trkpt>
      <trkpt lat="48.22931" lon="6.54304">
        <ele>338.1</ele>
        <time>2025-01-19T15:00:20Z</time>
      </trkpt>
      <trkpt lat="48.22941" lon="6.543">
        <ele>338</ele>
        <time>2025-01-19T15:00:28Z</time>
      </trkpt>
      <trkpt lat="48.2295" lon="6.54296">
        <ele>338</ele>
        <time>2025-01-19T15:00:36Z</time>
      </trkpt>
      <trkpt lat="48.22959" lon="6.54289">
        <ele>338.1</ele>
        <time>2025-01-19T15:00:45Z</time>
      </trkpt>
      <trkpt lat="48.22968" lon="6.54286">
        <ele>338.1</ele>
        <time>2025-01-19T15:00:53Z</time>
      </trkpt>
      <trkpt lat="48.22977" lon="6.54282">
        <ele>338.1</ele>
        <time>2025-01-19T15:01:01Z</time>
      </trkpt>
      <trkpt lat="48.22987" lon="6.54278">
        <ele>338.1</ele>
        <time>2025-01-19T15:01:09Z</time>
      </trkpt>
      <trkpt lat="48.22996" lon="6.54274">
        <ele>338.1</ele>
        <time>2025-01-19T15:01:17Z</time>
      </trkpt>
      <trkpt lat="48.23005" lon="6.54274">
        <ele>338.1</ele>
        <time>2025-01-19T15:01:25Z</time>
      </trkpt>
      <trkpt lat="48.23015" lon="6.54276">
        <ele>338.1</ele>
        <time>2025-01-19T15:01:34Z</time>
      </trkpt>
      <trkpt lat="48.23023" lon="6.54269">
        <ele>338.2</ele>
        <time>2025-01-19T15:01:42Z</time>
      </trkpt>
      <trkpt lat="48.23031" lon="6.54263">
        <ele>338.3</ele>
        <time>2025-01-19T15:01:51Z</time>
      </trkpt>
      <trkpt lat="48.23032" lon="6.54263">
        <ele>338.4</ele>
        <time>2025-01-19T15:01:55Z</time>
      </trkpt>
      <trkpt lat="48.23032" lon="6.54263">
        <ele>338.4</ele>
        <time>2025-01-19T15:01:56Z</time>
      </trkpt>
      <trkpt lat="48.23032" lon="6.54263">
        <ele>338.4</ele>
        <time>2025-01-19T15:01:57Z</time>
      </trkpt>
      <trkpt lat="48.23032" lon="6.54263">
        <ele>338.4</ele>
        <time>2025-01-19T15:02:00Z</time>
      </trkpt>
      <trkpt lat="48.23032" lon="6.54263">
        <ele>338.4</ele>
        <time>2025-01-19T15:02:01Z</time>
      </trkpt>
      <trkpt lat="48.23032" lon="6.54263">
        <ele>338.4</ele>
        <time>2025-01-19T15:02:02Z</time>
      </trkpt>
      <trkpt lat="48.23039" lon="6.54273">
        <ele>338.5</ele>
        <time>2025-01-19T15:02:11Z</time>
      </trkpt>
      <trkpt lat="48.23047" lon="6.54282">
        <ele>338.6</ele>
        <time>2025-01-19T15:02:19Z</time>
      </trkpt>
      <trkpt lat="48.23055" lon="6.5429">
        <ele>338.8</ele>
        <time>2025-01-19T15:02:27Z</time>
      </trkpt>
      <trkpt lat="48.23063" lon="6.54299">
        <ele>339.1</ele>
        <time>2025-01-19T15:02:35Z</time>
      </trkpt>
      <trkpt lat="48.2307" lon="6.54308">
        <ele>339.4</ele>
        <time>2025-01-19T15:02:43Z</time>
      </trkpt>
      <trkpt lat="48.23077" lon="6.54317">
        <ele>339.6</ele>
        <time>2025-01-19T15:02:51Z</time>
      </trkpt>
      <trkpt lat="48.23085" lon="6.54325">
        <ele>339.9</ele>
        <time>2025-01-19T15:02:59Z</time>
      </trkpt>
      <trkpt lat="48.23093" lon="6.54333">
        <ele>340.1</ele>
        <time>2025-01-19T15:03:07Z</time>
      </trkpt>
      <trkpt lat="48.23102" lon="6.54339">
        <ele>340.4</ele>
        <time>2025-01-19T15:03:15Z</time>
      </trkpt>
      <trkpt lat="48.23111" lon="6.54339">
        <ele>340.5</ele>
        <time>2025-01-19T15:03:23Z</time>
      </trkpt>
      <trkpt lat="48.23121" lon="6.54335">
        <ele>340.7</ele>
        <time>2025-01-19T15:03:31Z</time>
      </trkpt>
      <trkpt lat="48.23128" lon="6.54326">
        <ele>340.9</ele>
        <time>2025-01-19T15:03:39Z</time>
      </trkpt>
      <trkpt lat="48.23135" lon="6.54316">
        <ele>341</ele>
        <time>2025-01-19T15:03:47Z</time>
      </trkpt>
      <trkpt lat="48.23142" lon="6.54306">
        <ele>341.1</ele>
        <time>2025-01-19T15:03:55Z</time>
      </trkpt>
      <trkpt lat="48.23149" lon="6.54298">
        <ele>341.2</ele>
        <time>2025-01-19T15:04:03Z</time>
      </trkpt>
      <trkpt lat="48.23158" lon="6.54292">
        <ele>341.3</ele>
        <time>2025-01-19T15:04:11Z</time>
      </trkpt>
      <trkpt lat="48.23167" lon="6.54289">
        <ele>341.4</ele>
        <time>2025-01-19T15:04:19Z</time>
      </trkpt>
      <trkpt lat="48.23176" lon="6.54288">
        <ele>341.5</ele>
        <time>2025-01-19T15:04:27Z</time>
      </trkpt>
      <trkpt lat="48.23186" lon="6.54287">
        <ele>341.6</ele>
        <time>2025-01-19T15:04:35Z</time>
      </trkpt>
      <trkpt lat="48.23192" lon="6.54286">
        <ele>341.7</ele>
        <time>2025-01-19T15:04:44Z</time>
      </trkpt>
      <trkpt lat="48.23192" lon="6.54286">
        <ele>341.7</ele>
        <time>2025-01-19T15:04:45Z</time>
      </trkpt>
      <trkpt lat="48.23192" lon="6.54286">
        <ele>341.7</ele>
        <time>2025-01-19T15:04:46Z</time>
      </trkpt>
      <trkpt lat="48.23193" lon="6.54286">
        <ele>341.7</ele>
        <time>2025-01-19T15:04:47Z</time>
      </trkpt>
      <trkpt lat="48.23193" lon="6.54286">
        <ele>341.7</ele>
        <time>2025-01-19T15:04:48Z</time>
      </trkpt>
      <trkpt lat="48.23194" lon="6.54285">
        <ele>341.7</ele>
        <time>2025-01-19T15:04:49Z</time>
      </trkpt>
      <trkpt lat="48.23196" lon="6.54284">
        <ele>341.7</ele>
        <time>2025-01-19T15:04:50Z</time>
      </trkpt>
      <trkpt lat="48.23197" lon="6.54284">
        <ele>341.7</ele>
        <time>2025-01-19T15:04:51Z</time>
      </trkpt>
      <trkpt lat="48.23198" lon="6.54283">
        <ele>341.7</ele>
        <time>2025-01-19T15:04:52Z</time>
      </trkpt>
      <trkpt lat="48.23206" lon="6.54275">
        <ele>341.8</ele>
        <time>2025-01-19T15:05:00Z</time>
      </trkpt>
      <trkpt lat="48.23212" lon="6.54265">
        <ele>341.8</ele>
        <time>2025-01-19T15:05:08Z</time>
      </trkpt>
      <trkpt lat="48.23216" lon="6.54251">
        <ele>341.9</ele>
        <time>2025-01-19T15:05:16Z</time>
      </trkpt>
      <trkpt lat="48.23217" lon="6.54237">
        <ele>341.9</ele>
        <time>2025-01-19T15:05:24Z</time>
      </trkpt>
      <trkpt lat="48.23217" lon="6.54222">
        <ele>341.9</ele>
        <time>2025-01-19T15:05:32Z</time>
      </trkpt>
      <trkpt lat="48.23217" lon="6.54207">
        <ele>341.9</ele>
        <time>2025-01-19T15:05:40Z</time>
      </trkpt>
      <trkpt lat="48.23219" lon="6.54191">
        <ele>341.8</ele>
        <time>2025-01-19T15:05:48Z</time>
      </trkpt>
      <trkpt lat="48.23224" lon="6.54177">
        <ele>341.8</ele>
        <time>2025-01-19T15:05:56Z</time>
      </trkpt>
      <trkpt lat="48.2323" lon="6.54165">
        <ele>341.7</ele>
        <time>2025-01-19T15:06:04Z</time>
      </trkpt>
      <trkpt lat="48.23237" lon="6.54156">
        <ele>341.6</ele>
        <time>2025-01-19T15:06:12Z</time>
      </trkpt>
      <trkpt lat="48.23247" lon="6.54149">
        <ele>341.5</ele>
        <time>2025-01-19T15:06:20Z</time>
      </trkpt>
      <trkpt lat="48.23256" lon="6.54144">
        <ele>341.4</ele>
        <time>2025-01-19T15:06:28Z</time>
      </trkpt>
      <trkpt lat="48.23266" lon="6.5414">
        <ele>341.3</ele>
        <time>2025-01-19T15:06:36Z</time>
      </trkpt>
      <trkpt lat="48.23276" lon="6.54136">
        <ele>341.3</ele>
        <time>2025-01-19T15:06:44Z</time>
      </trkpt>
      <trkpt lat="48.23286" lon="6.54133">
        <ele>341.2</ele>
        <time>2025-01-19T15:06:52Z</time>
      </trkpt>
      <trkpt lat="48.23296" lon="6.5413">
        <ele>341</ele>
        <time>2025-01-19T15:07:00Z</time>
      </trkpt>
      <trkpt lat="48.23306" lon="6.54127">
        <ele>340.7</ele>
        <time>2025-01-19T15:07:08Z</time>
      </trkpt>
      <trkpt lat="48.23316" lon="6.54125">
        <ele>340.3</ele>
        <time>2025-01-19T15:07:16Z</time>
      </trkpt>
      <trkpt lat="48.23326" lon="6.54122">
        <ele>340</ele>
        <time>2025-01-19T15:07:24Z</time>
      </trkpt>
      <trkpt lat="48.23335" lon="6.54119">
        <ele>339.7</ele>
        <time>2025-01-19T15:07:31Z</time>
      </trkpt>
      <trkpt lat="48.23344" lon="6.54117">
        <ele>339.5</ele>
        <time>2025-01-19T15:07:38Z</time>
      </trkpt>
      <trkpt lat="48.23353" lon="6.54115">
        <ele>339.2</ele>
        <time>2025-01-19T15:07:45Z</time>
      </trkpt>
      <trkpt lat="48.23363" lon="6.54113">
        <ele>339</ele>
        <time>2025-01-19T15:07:53Z</time>
      </trkpt>
      <trkpt lat="48.23373" lon="6.5411">
        <ele>338.8</ele>
        <time>2025-01-19T15:08:01Z</time>
      </trkpt>
      <trkpt lat="48.23383" lon="6.54107">
        <ele>338.6</ele>
        <time>2025-01-19T15:08:09Z</time>
      </trkpt>
      <trkpt lat="48.23393" lon="6.54105">
        <ele>338.4</ele>
        <time>2025-01-19T15:08:17Z</time>
      </trkpt>
      <trkpt lat="48.23403" lon="6.54102">
        <ele>338.2</ele>
        <time>2025-01-19T15:08:25Z</time>
      </trkpt>
      <trkpt lat="48.23413" lon="6.54099">
        <ele>338</ele>
        <time>2025-01-19T15:08:33Z</time>
      </trkpt>
      <trkpt lat="48.23423" lon="6.54096">
        <ele>337.7</ele>
        <time>2025-01-19T15:08:41Z</time>
      </trkpt>
      <trkpt lat="48.23432" lon="6.54093">
        <ele>337.5</ele>
        <time>2025-01-19T15:08:48Z</time>
      </trkpt>
      <trkpt lat="48.23441" lon="6.54092">
        <ele>337.3</ele>
        <time>2025-01-19T15:08:55Z</time>
      </trkpt>
      <trkpt lat="48.23451" lon="6.5409">
        <ele>337</ele>
        <time>2025-01-19T15:09:03Z</time>
      </trkpt>
      <trkpt lat="48.23461" lon="6.54088">
        <ele>336.7</ele>
        <time>2025-01-19T15:09:11Z</time>
      </trkpt>
      <trkpt lat="48.23471" lon="6.54086">
        <ele>336.4</ele>
        <time>2025-01-19T15:09:19Z</time>
      </trkpt>
      <trkpt lat="48.23481" lon="6.54084">
        <ele>336</ele>
        <time>2025-01-19T15:09:27Z</time>
      </trkpt>
      <trkpt lat="48.23491" lon="6.54082">
        <ele>335.7</ele>
        <time>2025-01-19T15:09:35Z</time>
      </trkpt>
      <trkpt lat="48.235" lon="6.5408">
        <ele>335.4</ele>
        <time>2025-01-19T15:09:42Z</time>
      </trkpt>
      <trkpt lat="48.23509" lon="6.54079">
        <ele>335</ele>
        <time>2025-01-19T15:09:49Z</time>
      </trkpt>
      <trkpt lat="48.23519" lon="6.54077">
        <ele>334.6</ele>
        <time>2025-01-19T15:09:56Z</time>
      </trkpt>
      <trkpt lat="48.23529" lon="6.54076">
        <ele>334.2</ele>
        <time>2025-01-19T15:10:04Z</time>
      </trkpt>
      <trkpt lat="48.23538" lon="6.54074">
        <ele>333.8</ele>
        <time>2025-01-19T15:10:12Z</time>
      </trkpt>
      <trkpt lat="48.23548" lon="6.54072">
        <ele>333.4</ele>
        <time>2025-01-19T15:10:20Z</time>
      </trkpt>
      <trkpt lat="48.23559" lon="6.5407">
        <ele>333</ele>
        <time>2025-01-19T15:10:28Z</time>
      </trkpt>
      <trkpt lat="48.23569" lon="6.54069">
        <ele>332.6</ele>
        <time>2025-01-19T15:10:36Z</time>
      </trkpt>
      <trkpt lat="48.23578" lon="6.54066">
        <ele>332.2</ele>
        <time>2025-01-19T15:10:44Z</time>
      </trkpt>
      <trkpt lat="48.23588" lon="6.54064">
        <ele>331.9</ele>
        <time>2025-01-19T15:10:52Z</time>
      </trkpt>
      <trkpt lat="48.23598" lon="6.54062">
        <ele>331.6</ele>
        <time>2025-01-19T15:11:00Z</time>
      </trkpt>
      <trkpt lat="48.23608" lon="6.5406">
        <ele>331.4</ele>
        <time>2025-01-19T15:11:08Z</time>
      </trkpt>
      <trkpt lat="48.23617" lon="6.54058">
        <ele>331.2</ele>
        <time>2025-01-19T15:11:15Z</time>
      </trkpt>
      <trkpt lat="48.23627" lon="6.54055">
        <ele>331.1</ele>
        <time>2025-01-19T15:11:23Z</time>
      </trkpt>
      <trkpt lat="48.23636" lon="6.54053">
        <ele>331</ele>
        <time>2025-01-19T15:11:30Z</time>
      </trkpt>
      <trkpt lat="48.23645" lon="6.54051">
        <ele>330.9</ele>
        <time>2025-01-19T15:11:37Z</time>
      </trkpt>
      <trkpt lat="48.23652" lon="6.54048">
        <ele>330.8</ele>
        <time>2025-01-19T15:11:48Z</time>
      </trkpt>
      <trkpt lat="48.23652" lon="6.54048">
        <ele>330.8</ele>
        <time>2025-01-19T15:11:49Z</time>
      </trkpt>
      <trkpt lat="48.23652" lon="6.54048">
        <ele>330.8</ele>
        <time>2025-01-19T15:11:50Z</time>
      </trkpt>
      <trkpt lat="48.23653" lon="6.54048">
        <ele>330.8</ele>
        <time>2025-01-19T15:11:51Z</time>
      </trkpt>
      <trkpt lat="48.23654" lon="6.54048">
        <ele>330.8</ele>
        <time>2025-01-19T15:11:52Z</time>
      </trkpt>
      <trkpt lat="48.23664" lon="6.54046">
        <ele>330.7</ele>
        <time>2025-01-19T15:11:59Z</time>
      </trkpt>
      <trkpt lat="48.23673" lon="6.54043">
        <ele>330.7</ele>
        <time>2025-01-19T15:12:06Z</time>
      </trkpt>
      <trkpt lat="48.23682" lon="6.54041">
        <ele>330.6</ele>
        <time>2025-01-19T15:12:13Z</time>
      </trkpt>
      <trkpt lat="48.23692" lon="6.54039">
        <ele>330.6</ele>
        <time>2025-01-19T15:12:20Z</time>
      </trkpt>
      <trkpt lat="48.23701" lon="6.54036">
        <ele>330.6</ele>
        <time>2025-01-19T15:12:27Z</time>
      </trkpt>
      <trkpt lat="48.2371" lon="6.54034">
        <ele>330.6</ele>
        <time>2025-01-19T15:12:34Z</time>
      </trkpt>
      <trkpt lat="48.2372" lon="6.54031">
        <ele>330.7</ele>
        <time>2025-01-19T15:12:41Z</time>
      </trkpt>
      <trkpt lat="48.23729" lon="6.54029">
        <ele>330.6</ele>
        <time>2025-01-19T15:12:48Z</time>
      </trkpt>
      <trkpt lat="48.23738" lon="6.54028">
        <ele>330.6</ele>
        <time>2025-01-19T15:12:55Z</time>
      </trkpt>
      <trkpt lat="48.23748" lon="6.54026">
        <ele>330.6</ele>
        <time>2025-01-19T15:13:02Z</time>
      </trkpt>
      <trkpt lat="48.23757" lon="6.54024">
        <ele>330.6</ele>
        <time>2025-01-19T15:13:09Z</time>
      </trkpt>
      <trkpt lat="48.23766" lon="6.54022">
        <ele>330.7</ele>
        <time>2025-01-19T15:13:16Z</time>
      </trkpt>
      <trkpt lat="48.23776" lon="6.5402">
        <ele>330.8</ele>
        <time>2025-01-19T15:13:24Z</time>
      </trkpt>
      <trkpt lat="48.23786" lon="6.54017">
        <ele>330.9</ele>
        <time>2025-01-19T15:13:32Z</time>
      </trkpt>
      <trkpt lat="48.23796" lon="6.54014">
        <ele>331</ele>
        <time>2025-01-19T15:13:40Z</time>
      </trkpt>
      <trkpt lat="48.23805" lon="6.54011">
        <ele>331.1</ele>
        <time>2025-01-19T15:13:47Z</time>
      </trkpt>
      <trkpt lat="48.23814" lon="6.54008">
        <ele>331.2</ele>
        <time>2025-01-19T15:13:54Z</time>
      </trkpt>
      <trkpt lat="48.23823" lon="6.54004">
        <ele>331.4</ele>
        <time>2025-01-19T15:14:02Z</time>
      </trkpt>
      <trkpt lat="48.23823" lon="6.54004">
        <ele>331.4</ele>
        <time>2025-01-19T15:14:06Z</time>
      </trkpt>
      <trkpt lat="48.23823" lon="6.54004">
        <ele>331.4</ele>
        <time>2025-01-19T15:14:07Z</time>
      </trkpt>
      <trkpt lat="48.23826" lon="6.54003">
        <ele>331.4</ele>
        <time>2025-01-19T15:14:16Z</time>
      </trkpt>
      <trkpt lat="48.23828" lon="6.54003">
        <ele>331.4</ele>
        <time>2025-01-19T15:14:17Z</time>
      </trkpt>
      <trkpt lat="48.23837" lon="6.53999">
        <ele>331.6</ele>
        <time>2025-01-19T15:14:24Z</time>
      </trkpt>
      <trkpt lat="48.23846" lon="6.53995">
        <ele>331.8</ele>
        <time>2025-01-19T15:14:31Z</time>
      </trkpt>
      <trkpt lat="48.23855" lon="6.5399">
        <ele>332</ele>
        <time>2025-01-19T15:14:38Z</time>
      </trkpt>
      <trkpt lat="48.23864" lon="6.53984">
        <ele>332.3</ele>
        <time>2025-01-19T15:14:45Z</time>
      </trkpt>
      <trkpt lat="48.23872" lon="6.53978">
        <ele>332.8</ele>
        <time>2025-01-19T15:14:52Z</time>
      </trkpt>
      <trkpt lat="48.23875" lon="6.53975">
        <ele>333</ele>
        <time>2025-01-19T15:14:58Z</time>
      </trkpt>
      <trkpt lat="48.23878" lon="6.53973">
        <ele>333.2</ele>
        <time>2025-01-19T15:15:05Z</time>
      </trkpt>
      <trkpt lat="48.23879" lon="6.53972">
        <ele>333.2</ele>
        <time>2025-01-19T15:15:06Z</time>
      </trkpt>
      <trkpt lat="48.23881" lon="6.53971">
        <ele>333.3</ele>
        <time>2025-01-19T15:15:07Z</time>
      </trkpt>
      <trkpt lat="48.23889" lon="6.53964">
        <ele>333.9</ele>
        <time>2025-01-19T15:15:14Z</time>
      </trkpt>
      <trkpt lat="48.23896" lon="6.53956">
        <ele>334.6</ele>
        <time>2025-01-19T15:15:21Z</time>
      </trkpt>
      <trkpt lat="48.23904" lon="6.53948">
        <ele>335.3</ele>
        <time>2025-01-19T15:15:28Z</time>
      </trkpt>
      <trkpt lat="48.23911" lon="6.5394">
        <ele>336</ele>
        <time>2025-01-19T15:15:35Z</time>
      </trkpt>
      <trkpt lat="48.23918" lon="6.53931">
        <ele>336.7</ele>
        <time>2025-01-19T15:15:42Z</time>
      </trkpt>
      <trkpt lat="48.23925" lon="6.53923">
        <ele>337.4</ele>
        <time>2025-01-19T15:15:49Z</time>
      </trkpt>
      <trkpt lat="48.23933" lon="6.53915">
        <ele>338.1</ele>
        <time>2025-01-19T15:15:56Z</time>
      </trkpt>
      <trkpt lat="48.23941" lon="6.53906">
        <ele>338.8</ele>
        <time>2025-01-19T15:16:03Z</time>
      </trkpt>
      <trkpt lat="48.23948" lon="6.53899">
        <ele>339.4</ele>
        <time>2025-01-19T15:16:10Z</time>
      </trkpt>
      <trkpt lat="48.23956" lon="6.5389">
        <ele>339.9</ele>
        <time>2025-01-19T15:16:17Z</time>
      </trkpt>
      <trkpt lat="48.23963" lon="6.5388">
        <ele>340.3</ele>
        <time>2025-01-19T15:16:24Z</time>
      </trkpt>
      <trkpt lat="48.23969" lon="6.53871">
        <ele>340.7</ele>
        <time>2025-01-19T15:16:31Z</time>
      </trkpt>
      <trkpt lat="48.23975" lon="6.5386">
        <ele>341.1</ele>
        <time>2025-01-19T15:16:38Z</time>
      </trkpt>
      <trkpt lat="48.23981" lon="6.5385">
        <ele>341.4</ele>
        <time>2025-01-19T15:16:45Z</time>
      </trkpt>
      <trkpt lat="48.23986" lon="6.53839">
        <ele>341.7</ele>
        <time>2025-01-19T15:16:52Z</time>
      </trkpt>
      <trkpt lat="48.23992" lon="6.53826">
        <ele>342</ele>
        <time>2025-01-19T15:17:00Z</time>
      </trkpt>
      <trkpt lat="48.23998" lon="6.53815">
        <ele>342.4</ele>
        <time>2025-01-19T15:17:08Z</time>
      </trkpt>
      <trkpt lat="48.24004" lon="6.53804">
        <ele>342.7</ele>
        <time>2025-01-19T15:17:16Z</time>
      </trkpt>
      <trkpt lat="48.24009" lon="6.53793">
        <ele>343</ele>
        <time>2025-01-19T15:17:23Z</time>
      </trkpt>
      <trkpt lat="48.24016" lon="6.53783">
        <ele>343.4</ele>
        <time>2025-01-19T15:17:30Z</time>
      </trkpt>
      <trkpt lat="48.24023" lon="6.53773">
        <ele>343.8</ele>
        <time>2025-01-19T15:17:37Z</time>
      </trkpt>
      <trkpt lat="48.24031" lon="6.53766">
        <ele>344.2</ele>
        <time>2025-01-19T15:17:44Z</time>
      </trkpt>
      <trkpt lat="48.2404" lon="6.53761">
        <ele>344.6</ele>
        <time>2025-01-19T15:17:51Z</time>
      </trkpt>
      <trkpt lat="48.24049" lon="6.53758">
        <ele>345.1</ele>
        <time>2025-01-19T15:17:59Z</time>
      </trkpt>
      <trkpt lat="48.24058" lon="6.53756">
        <ele>345.5</ele>
        <time>2025-01-19T15:18:06Z</time>
      </trkpt>
      <trkpt lat="48.24067" lon="6.53755">
        <ele>345.9</ele>
        <time>2025-01-19T15:18:13Z</time>
      </trkpt>
      <trkpt lat="48.24076" lon="6.53755">
        <ele>346.3</ele>
        <time>2025-01-19T15:18:20Z</time>
      </trkpt>
      <trkpt lat="48.24085" lon="6.53755">
        <ele>346.7</ele>
        <time>2025-01-19T15:18:27Z</time>
      </trkpt>
      <trkpt lat="48.24094" lon="6.53755">
        <ele>347</ele>
        <time>2025-01-19T15:18:34Z</time>
      </trkpt>
      <trkpt lat="48.24103" lon="6.53755">
        <ele>347.4</ele>
        <time>2025-01-19T15:18:41Z</time>
      </trkpt>
      <trkpt lat="48.24112" lon="6.53756">
        <ele>347.8</ele>
        <time>2025-01-19T15:18:48Z</time>
      </trkpt>
      <trkpt lat="48.24121" lon="6.53756">
        <ele>348.2</ele>
        <time>2025-01-19T15:18:55Z</time>
      </trkpt>
      <trkpt lat="48.24131" lon="6.53756">
        <ele>348.6</ele>
        <time>2025-01-19T15:19:02Z</time>
      </trkpt>
      <trkpt lat="48.2414" lon="6.53757">
        <ele>349</ele>
        <time>2025-01-19T15:19:09Z</time>
      </trkpt>
      <trkpt lat="48.24149" lon="6.53757">
        <ele>349.4</ele>
        <time>2025-01-19T15:19:16Z</time>
      </trkpt>
      <trkpt lat="48.24158" lon="6.53757">
        <ele>349.7</ele>
        <time>2025-01-19T15:19:23Z</time>
      </trkpt>
      <trkpt lat="48.24167" lon="6.53756">
        <ele>350.1</ele>
        <time>2025-01-19T15:19:30Z</time>
      </trkpt>
      <trkpt lat="48.24177" lon="6.53754">
        <ele>350.3</ele>
        <time>2025-01-19T15:19:38Z</time>
      </trkpt>
      <trkpt lat="48.24187" lon="6.53751">
        <ele>350.6</ele>
        <time>2025-01-19T15:19:46Z</time>
      </trkpt>
      <trkpt lat="48.24197" lon="6.53748">
        <ele>350.8</ele>
        <time>2025-01-19T15:19:54Z</time>
      </trkpt>
      <trkpt lat="48.24207" lon="6.53746">
        <ele>350.9</ele>
        <time>2025-01-19T15:20:02Z</time>
      </trkpt>
      <trkpt lat="48.24217" lon="6.53742">
        <ele>351.1</ele>
        <time>2025-01-19T15:20:10Z</time>
      </trkpt>
      <trkpt lat="48.24226" lon="6.5374">
        <ele>351.3</ele>
        <time>2025-01-19T15:20:17Z</time>
      </trkpt>
      <trkpt lat="48.24236" lon="6.53737">
        <ele>351.5</ele>
        <time>2025-01-19T15:20:25Z</time>
      </trkpt>
      <trkpt lat="48.24246" lon="6.53734">
        <ele>351.8</ele>
        <time>2025-01-19T15:20:33Z</time>
      </trkpt>
      <trkpt lat="48.24256" lon="6.53732">
        <ele>352.2</ele>
        <time>2025-01-19T15:20:41Z</time>
      </trkpt>
      <trkpt lat="48.24265" lon="6.53731">
        <ele>352.5</ele>
        <time>2025-01-19T15:20:48Z</time>
      </trkpt>
      <trkpt lat="48.24274" lon="6.53729">
        <ele>352.9</ele>
        <time>2025-01-19T15:20:55Z</time>
      </trkpt>
      <trkpt lat="48.24283" lon="6.53727">
        <ele>353.2</ele>
        <time>2025-01-19T15:21:02Z</time>
      </trkpt>
      <trkpt lat="48.24292" lon="6.53725">
        <ele>353.6</ele>
        <time>2025-01-19T15:21:09Z</time>
      </trkpt>
      <trkpt lat="48.24302" lon="6.53723">
        <ele>354</ele>
        <time>2025-01-19T15:21:16Z</time>
      </trkpt>
      <trkpt lat="48.24311" lon="6.53719">
        <ele>354.4</ele>
        <time>2025-01-19T15:21:24Z</time>
      </trkpt>
      <trkpt lat="48.2432" lon="6.53717">
        <ele>354.7</ele>
        <time>2025-01-19T15:21:31Z</time>
      </trkpt>
      <trkpt lat="48.24329" lon="6.53713">
        <ele>354.9</ele>
        <time>2025-01-19T15:21:38Z</time>
      </trkpt>
      <trkpt lat="48.24339" lon="6.53709">
        <ele>355</ele>
        <time>2025-01-19T15:21:45Z</time>
      </trkpt>
      <trkpt lat="48.24348" lon="6.53706">
        <ele>355</ele>
        <time>2025-01-19T15:21:52Z</time>
      </trkpt>
      <trkpt lat="48.24358" lon="6.53703">
        <ele>354.9</ele>
        <time>2025-01-19T15:22:00Z</time>
      </trkpt>
      <trkpt lat="48.24368" lon="6.53701">
        <ele>354.6</ele>
        <time>2025-01-19T15:22:08Z</time>
      </trkpt>
      <trkpt lat="48.24377" lon="6.53698">
        <ele>354.1</ele>
        <time>2025-01-19T15:22:16Z</time>
      </trkpt>
      <trkpt lat="48.24387" lon="6.53696">
        <ele>353.6</ele>
        <time>2025-01-19T15:22:24Z</time>
      </trkpt>
      <trkpt lat="48.24396" lon="6.53694">
        <ele>352.9</ele>
        <time>2025-01-19T15:22:32Z</time>
      </trkpt>
      <trkpt lat="48.24406" lon="6.53694">
        <ele>352.2</ele>
        <time>2025-01-19T15:22:40Z</time>
      </trkpt>
      <trkpt lat="48.24416" lon="6.53694">
        <ele>351.6</ele>
        <time>2025-01-19T15:22:47Z</time>
      </trkpt>
      <trkpt lat="48.24425" lon="6.53695">
        <ele>351</ele>
        <time>2025-01-19T15:22:54Z</time>
      </trkpt>
      <trkpt lat="48.24435" lon="6.53697">
        <ele>350.5</ele>
        <time>2025-01-19T15:23:02Z</time>
      </trkpt>
      <trkpt lat="48.24445" lon="6.53699">
        <ele>349.9</ele>
        <time>2025-01-19T15:23:10Z</time>
      </trkpt>
      <trkpt lat="48.24455" lon="6.53702">
        <ele>349.4</ele>
        <time>2025-01-19T15:23:18Z</time>
      </trkpt>
      <trkpt lat="48.24464" lon="6.53705">
        <ele>348.9</ele>
        <time>2025-01-19T15:23:26Z</time>
      </trkpt>
      <trkpt lat="48.24474" lon="6.53708">
        <ele>348.4</ele>
        <time>2025-01-19T15:23:34Z</time>
      </trkpt>
      <trkpt lat="48.24484" lon="6.53711">
        <ele>348</ele>
        <time>2025-01-19T15:23:42Z</time>
      </trkpt>
      <trkpt lat="48.24494" lon="6.53713">
        <ele>347.7</ele>
        <time>2025-01-19T15:23:50Z</time>
      </trkpt>
      <trkpt lat="48.24504" lon="6.53715">
        <ele>347.3</ele>
        <time>2025-01-19T15:23:58Z</time>
      </trkpt>
      <trkpt lat="48.24513" lon="6.53717">
        <ele>347</ele>
        <time>2025-01-19T15:24:06Z</time>
      </trkpt>
      <trkpt lat="48.24524" lon="6.53719">
        <ele>346.9</ele>
        <time>2025-01-19T15:24:14Z</time>
      </trkpt>
      <trkpt lat="48.24534" lon="6.53721">
        <ele>346.6</ele>
        <time>2025-01-19T15:24:22Z</time>
      </trkpt>
      <trkpt lat="48.24544" lon="6.53724">
        <ele>346.2</ele>
        <time>2025-01-19T15:24:30Z</time>
      </trkpt>
      <trkpt lat="48.24553" lon="6.53726">
        <ele>346</ele>
        <time>2025-01-19T15:24:37Z</time>
      </trkpt>
      <trkpt lat="48.24563" lon="6.53728">
        <ele>345.6</ele>
        <time>2025-01-19T15:24:45Z</time>
      </trkpt>
      <trkpt lat="48.24572" lon="6.53729">
        <ele>345.4</ele>
        <time>2025-01-19T15:24:52Z</time>
      </trkpt>
      <trkpt lat="48.24581" lon="6.5373">
        <ele>345.1</ele>
        <time>2025-01-19T15:24:59Z</time>
      </trkpt>
      <trkpt lat="48.24591" lon="6.5373">
        <ele>344.8</ele>
        <time>2025-01-19T15:25:07Z</time>
      </trkpt>
      <trkpt lat="48.24601" lon="6.5373">
        <ele>344.6</ele>
        <time>2025-01-19T15:25:15Z</time>
      </trkpt>
      <trkpt lat="48.24611" lon="6.53729">
        <ele>344.4</ele>
        <time>2025-01-19T15:25:23Z</time>
      </trkpt>
      <trkpt lat="48.24621" lon="6.53728">
        <ele>344.2</ele>
        <time>2025-01-19T15:25:31Z</time>
      </trkpt>
      <trkpt lat="48.24631" lon="6.53727">
        <ele>344.2</ele>
        <time>2025-01-19T15:25:39Z</time>
      </trkpt>
      <trkpt lat="48.24641" lon="6.53726">
        <ele>344.1</ele>
        <time>2025-01-19T15:25:47Z</time>
      </trkpt>
      <trkpt lat="48.24651" lon="6.53725">
        <ele>344.1</ele>
        <time>2025-01-19T15:25:55Z</time>
      </trkpt>
      <trkpt lat="48.24661" lon="6.53724">
        <ele>344.2</ele>
        <time>2025-01-19T15:26:03Z</time>
      </trkpt>
      <trkpt lat="48.2467" lon="6.53723">
        <ele>344.2</ele>
        <time>2025-01-19T15:26:11Z</time>
      </trkpt>
      <trkpt lat="48.24681" lon="6.53721">
        <ele>344.2</ele>
        <time>2025-01-19T15:26:19Z</time>
      </trkpt>
      <trkpt lat="48.2469" lon="6.5372">
        <ele>344.1</ele>
        <time>2025-01-19T15:26:26Z</time>
      </trkpt>
      <trkpt lat="48.247" lon="6.53718">
        <ele>343.7</ele>
        <time>2025-01-19T15:26:34Z</time>
      </trkpt>
      <trkpt lat="48.2471" lon="6.53716">
        <ele>343.2</ele>
        <time>2025-01-19T15:26:42Z</time>
      </trkpt>
      <trkpt lat="48.24719" lon="6.53715">
        <ele>342.4</ele>
        <time>2025-01-19T15:26:50Z</time>
      </trkpt>
      <trkpt lat="48.24729" lon="6.53715">
        <ele>341.6</ele>
        <time>2025-01-19T15:26:58Z</time>
      </trkpt>
      <trkpt lat="48.24739" lon="6.53715">
        <ele>340.8</ele>
        <time>2025-01-19T15:27:06Z</time>
      </trkpt>
      <trkpt lat="48.24749" lon="6.53715">
        <ele>339.9</ele>
        <time>2025-01-19T15:27:14Z</time>
      </trkpt>
      <trkpt lat="48.24758" lon="6.53715">
        <ele>339</ele>
        <time>2025-01-19T15:27:22Z</time>
      </trkpt>
      <trkpt lat="48.24768" lon="6.53717">
        <ele>338</ele>
        <time>2025-01-19T15:27:30Z</time>
      </trkpt>
      <trkpt lat="48.24778" lon="6.53717">
        <ele>337</ele>
        <time>2025-01-19T15:27:38Z</time>
      </trkpt>
      <trkpt lat="48.24788" lon="6.53718">
        <ele>336.1</ele>
        <time>2025-01-19T15:27:46Z</time>
      </trkpt>
      <trkpt lat="48.24798" lon="6.5372">
        <ele>335.2</ele>
        <time>2025-01-19T15:27:54Z</time>
      </trkpt>
      <trkpt lat="48.24807" lon="6.5372">
        <ele>334.4</ele>
        <time>2025-01-19T15:28:01Z</time>
      </trkpt>
      <trkpt lat="48.24817" lon="6.53722">
        <ele>333.7</ele>
        <time>2025-01-19T15:28:08Z</time>
      </trkpt>
      <trkpt lat="48.24826" lon="6.53726">
        <ele>333</ele>
        <time>2025-01-19T15:28:15Z</time>
      </trkpt>
      <trkpt lat="48.24825" lon="6.5374">
        <ele>332.8</ele>
        <time>2025-01-19T15:28:25Z</time>
      </trkpt>
      <trkpt lat="48.24818" lon="6.5375">
        <ele>333.1</ele>
        <time>2025-01-19T15:28:32Z</time>
      </trkpt>
      <trkpt lat="48.24812" lon="6.53761">
        <ele>333.3</ele>
        <time>2025-01-19T15:28:39Z</time>
      </trkpt>
      <trkpt lat="48.24805" lon="6.53771">
        <ele>333.5</ele>
        <time>2025-01-19T15:28:46Z</time>
      </trkpt>
      <trkpt lat="48.24798" lon="6.5378">
        <ele>333.7</ele>
        <time>2025-01-19T15:28:53Z</time>
      </trkpt>
      <trkpt lat="48.24792" lon="6.5379">
        <ele>333.8</ele>
        <time>2025-01-19T15:29:00Z</time>
      </trkpt>
      <trkpt lat="48.24785" lon="6.538">
        <ele>333.9</ele>
        <time>2025-01-19T15:29:07Z</time>
      </trkpt>
      <trkpt lat="48.24779" lon="6.5381">
        <ele>334.1</ele>
        <time>2025-01-19T15:29:14Z</time>
      </trkpt>
      <trkpt lat="48.24772" lon="6.53819">
        <ele>334.3</ele>
        <time>2025-01-19T15:29:21Z</time>
      </trkpt>
      <trkpt lat="48.24764" lon="6.53828">
        <ele>334.6</ele>
        <time>2025-01-19T15:29:29Z</time>
      </trkpt>
      <trkpt lat="48.24756" lon="6.53836">
        <ele>334.9</ele>
        <time>2025-01-19T15:29:37Z</time>
      </trkpt>
      <trkpt lat="48.24748" lon="6.53845">
        <ele>335</ele>
        <time>2025-01-19T15:29:45Z</time>
      </trkpt>
      <trkpt lat="48.2474" lon="6.53853">
        <ele>335.2</ele>
        <time>2025-01-19T15:29:53Z</time>
      </trkpt>
      <trkpt lat="48.24733" lon="6.53862">
        <ele>335.3</ele>
        <time>2025-01-19T15:30:01Z</time>
      </trkpt>
      <trkpt lat="48.24725" lon="6.5387">
        <ele>335.4</ele>
        <time>2025-01-19T15:30:09Z</time>
      </trkpt>
      <trkpt lat="48.24717" lon="6.53879">
        <ele>335.5</ele>
        <time>2025-01-19T15:30:17Z</time>
      </trkpt>
      <trkpt lat="48.2471" lon="6.53888">
        <ele>335.7</ele>
        <time>2025-01-19T15:30:25Z</time>
      </trkpt>
      <trkpt lat="48.24702" lon="6.53897">
        <ele>335.8</ele>
        <time>2025-01-19T15:30:33Z</time>
      </trkpt>
      <trkpt lat="48.24694" lon="6.53906">
        <ele>336.1</ele>
        <time>2025-01-19T15:30:41Z</time>
      </trkpt>
      <trkpt lat="48.24687" lon="6.53915">
        <ele>336.5</ele>
        <time>2025-01-19T15:30:49Z</time>
      </trkpt>
      <trkpt lat="48.24679" lon="6.53924">
        <ele>336.9</ele>
        <time>2025-01-19T15:30:57Z</time>
      </trkpt>
      <trkpt lat="48.24672" lon="6.53933">
        <ele>337.3</ele>
        <time>2025-01-19T15:31:05Z</time>
      </trkpt>
      <trkpt lat="48.24665" lon="6.53942">
        <ele>337.8</ele>
        <time>2025-01-19T15:31:13Z</time>
      </trkpt>
      <trkpt lat="48.24657" lon="6.53951">
        <ele>338.2</ele>
        <time>2025-01-19T15:31:21Z</time>
      </trkpt>
      <trkpt lat="48.24649" lon="6.53961">
        <ele>338.7</ele>
        <time>2025-01-19T15:31:29Z</time>
      </trkpt>
      <trkpt lat="48.24644" lon="6.53968">
        <ele>338.9</ele>
        <time>2025-01-19T15:31:40Z</time>
      </trkpt>
      <trkpt lat="48.24644" lon="6.53968">
        <ele>338.9</ele>
        <time>2025-01-19T15:31:41Z</time>
      </trkpt>
      <trkpt lat="48.24644" lon="6.53968">
        <ele>338.9</ele>
        <time>2025-01-19T15:31:42Z</time>
      </trkpt>
      <trkpt lat="48.24643" lon="6.53968">
        <ele>338.9</ele>
        <time>2025-01-19T15:31:43Z</time>
      </trkpt>
      <trkpt lat="48.24642" lon="6.53969">
        <ele>338.9</ele>
        <time>2025-01-19T15:31:44Z</time>
      </trkpt>
      <trkpt lat="48.24642" lon="6.53969">
        <ele>338.9</ele>
        <time>2025-01-19T15:31:45Z</time>
      </trkpt>
      <trkpt lat="48.24633" lon="6.53976">
        <ele>338.8</ele>
        <time>2025-01-19T15:31:56Z</time>
      </trkpt>
      <trkpt lat="48.24627" lon="6.53988">
        <ele>338.6</ele>
        <time>2025-01-19T15:32:06Z</time>
      </trkpt>
      <trkpt lat="48.24624" lon="6.53994">
        <ele>338.5</ele>
        <time>2025-01-19T15:32:16Z</time>
      </trkpt>
      <trkpt lat="48.24624" lon="6.53994">
        <ele>338.5</ele>
        <time>2025-01-19T15:32:17Z</time>
      </trkpt>
      <trkpt lat="48.24623" lon="6.53994">
        <ele>338.5</ele>
        <time>2025-01-19T15:32:20Z</time>
      </trkpt>
      <trkpt lat="48.24622" lon="6.53995">
        <ele>338.5</ele>
        <time>2025-01-19T15:32:21Z</time>
      </trkpt>
      <trkpt lat="48.24621" lon="6.53996">
        <ele>338.5</ele>
        <time>2025-01-19T15:32:22Z</time>
      </trkpt>
      <trkpt lat="48.24615" lon="6.54007">
        <ele>338.7</ele>
        <time>2025-01-19T15:32:31Z</time>
      </trkpt>
      <trkpt lat="48.24608" lon="6.54019">
        <ele>339</ele>
        <time>2025-01-19T15:32:39Z</time>
      </trkpt>
      <trkpt lat="48.24601" lon="6.54029">
        <ele>339.4</ele>
        <time>2025-01-19T15:32:48Z</time>
      </trkpt>
      <trkpt lat="48.24596" lon="6.54041">
        <ele>339.8</ele>
        <time>2025-01-19T15:32:56Z</time>
      </trkpt>
      <trkpt lat="48.2459" lon="6.54053">
        <ele>340.1</ele>
        <time>2025-01-19T15:33:04Z</time>
      </trkpt>
      <trkpt lat="48.24583" lon="6.54065">
        <ele>340.4</ele>
        <time>2025-01-19T15:33:12Z</time>
      </trkpt>
      <trkpt lat="48.24577" lon="6.54075">
        <ele>340.6</ele>
        <time>2025-01-19T15:33:19Z</time>
      </trkpt>
      <trkpt lat="48.24571" lon="6.54087">
        <ele>340.7</ele>
        <time>2025-01-19T15:33:27Z</time>
      </trkpt>
      <trkpt lat="48.24563" lon="6.54097">
        <ele>340.5</ele>
        <time>2025-01-19T15:33:35Z</time>
      </trkpt>
      <trkpt lat="48.24556" lon="6.54107">
        <ele>340.4</ele>
        <time>2025-01-19T15:33:43Z</time>
      </trkpt>
      <trkpt lat="48.24548" lon="6.54116">
        <ele>340.1</ele>
        <time>2025-01-19T15:33:51Z</time>
      </trkpt>
      <trkpt lat="48.2454" lon="6.54124">
        <ele>339.9</ele>
        <time>2025-01-19T15:33:59Z</time>
      </trkpt>
      <trkpt lat="48.24532" lon="6.54131">
        <ele>339.6</ele>
        <time>2025-01-19T15:34:07Z</time>
      </trkpt>
      <trkpt lat="48.24524" lon="6.54138">
        <ele>339.2</ele>
        <time>2025-01-19T15:34:15Z</time>
      </trkpt>
      <trkpt lat="48.24515" lon="6.54146">
        <ele>338.6</ele>
        <time>2025-01-19T15:34:23Z</time>
      </trkpt>
      <trkpt lat="48.24506" lon="6.54153">
        <ele>337.8</ele>
        <time>2025-01-19T15:34:31Z</time>
      </trkpt>
      <trkpt lat="48.24497" lon="6.5416">
        <ele>337.1</ele>
        <time>2025-01-19T15:34:39Z</time>
      </trkpt>
      <trkpt lat="48.24489" lon="6.54167">
        <ele>336.6</ele>
        <time>2025-01-19T15:34:47Z</time>
      </trkpt>
      <trkpt lat="48.2448" lon="6.54174">
        <ele>336.2</ele>
        <time>2025-01-19T15:34:55Z</time>
      </trkpt>
      <trkpt lat="48.24471" lon="6.54181">
        <ele>335.9</ele>
        <time>2025-01-19T15:35:03Z</time>
      </trkpt>
      <trkpt lat="48.24463" lon="6.5419">
        <ele>335.7</ele>
        <time>2025-01-19T15:35:11Z</time>
      </trkpt>
      <trkpt lat="48.24456" lon="6.54201">
        <ele>335.6</ele>
        <time>2025-01-19T15:35:19Z</time>
      </trkpt>
      <trkpt lat="48.24449" lon="6.54213">
        <ele>335.6</ele>
        <time>2025-01-19T15:35:27Z</time>
      </trkpt>
      <trkpt lat="48.24444" lon="6.54224">
        <ele>335.5</ele>
        <time>2025-01-19T15:35:34Z</time>
      </trkpt>
      <trkpt lat="48.24438" lon="6.54236">
        <ele>335.4</ele>
        <time>2025-01-19T15:35:42Z</time>
      </trkpt>
      <trkpt lat="48.24431" lon="6.54245">
        <ele>335.4</ele>
        <time>2025-01-19T15:35:49Z</time>
      </trkpt>
      <trkpt lat="48.24423" lon="6.54255">
        <ele>335.3</ele>
        <time>2025-01-19T15:35:57Z</time>
      </trkpt>
      <trkpt lat="48.24417" lon="6.54264">
        <ele>335.3</ele>
        <time>2025-01-19T15:36:05Z</time>
      </trkpt>
      <trkpt lat="48.24409" lon="6.54274">
        <ele>335.2</ele>
        <time>2025-01-19T15:36:13Z</time>
      </trkpt>
      <trkpt lat="48.24403" lon="6.54286">
        <ele>335.2</ele>
        <time>2025-01-19T15:36:21Z</time>
      </trkpt>
      <trkpt lat="48.24397" lon="6.54297">
        <ele>335.2</ele>
        <time>2025-01-19T15:36:29Z</time>
      </trkpt>
      <trkpt lat="48.24391" lon="6.54309">
        <ele>335.2</ele>
        <time>2025-01-19T15:36:38Z</time>
      </trkpt>
      <trkpt lat="48.24384" lon="6.54319">
        <ele>335.2</ele>
        <time>2025-01-19T15:36:46Z</time>
      </trkpt>
      <trkpt lat="48.2438" lon="6.54321">
        <ele>335.2</ele>
        <time>2025-01-19T15:37:06Z</time>
      </trkpt>
      <trkpt lat="48.2438" lon="6.54321">
        <ele>335.2</ele>
        <time>2025-01-19T15:37:07Z</time>
      </trkpt>
      <trkpt lat="48.2438" lon="6.54321">
        <ele>335.2</ele>
        <time>2025-01-19T15:37:08Z</time>
      </trkpt>
      <trkpt lat="48.2438" lon="6.54321">
        <ele>335.2</ele>
        <time>2025-01-19T15:37:11Z</time>
      </trkpt>
      <trkpt lat="48.2438" lon="6.54321">
        <ele>335.2</ele>
        <time>2025-01-19T15:37:12Z</time>
      </trkpt>
      <trkpt lat="48.2438" lon="6.54321">
        <ele>335.2</ele>
        <time>2025-01-19T15:37:23Z</time>
      </trkpt>
      <trkpt lat="48.2438" lon="6.54321">
        <ele>335.2</ele>
        <time>2025-01-19T15:37:24Z</time>
      </trkpt>
      <trkpt lat="48.2438" lon="6.54321">
        <ele>335.2</ele>
        <time>2025-01-19T15:37:25Z</time>
      </trkpt>
      <trkpt lat="48.2438" lon="6.54321">
        <ele>335.2</ele>
        <time>2025-01-19T15:39:21Z</time>
      </trkpt>
      <trkpt lat="48.2438" lon="6.54322">
        <ele>335.2</ele>
        <time>2025-01-19T15:39:22Z</time>
      </trkpt>
      <trkpt lat="48.24375" lon="6.54336">
        <ele>335.3</ele>
        <time>2025-01-19T15:39:31Z</time>
      </trkpt>
      <trkpt lat="48.24368" lon="6.54344">
        <ele>335.5</ele>
        <time>2025-01-19T15:39:39Z</time>
      </trkpt>
      <trkpt lat="48.2436" lon="6.54352">
        <ele>335.8</ele>
        <time>2025-01-19T15:39:48Z</time>
      </trkpt>
      <trkpt lat="48.24352" lon="6.5436">
        <ele>336.2</ele>
        <time>2025-01-19T15:39:56Z</time>
      </trkpt>
      <trkpt lat="48.24344" lon="6.54367">
        <ele>336.5</ele>
        <time>2025-01-19T15:40:04Z</time>
      </trkpt>
      <trkpt lat="48.24335" lon="6.54374">
        <ele>336.7</ele>
        <time>2025-01-19T15:40:12Z</time>
      </trkpt>
      <trkpt lat="48.24327" lon="6.54382">
        <ele>336.7</ele>
        <time>2025-01-19T15:40:20Z</time>
      </trkpt>
      <trkpt lat="48.24318" lon="6.5439">
        <ele>336.4</ele>
        <time>2025-01-19T15:40:28Z</time>
      </trkpt>
      <trkpt lat="48.2431" lon="6.54398">
        <ele>336</ele>
        <time>2025-01-19T15:40:35Z</time>
      </trkpt>
      <trkpt lat="48.24302" lon="6.54406">
        <ele>335.7</ele>
        <time>2025-01-19T15:40:43Z</time>
      </trkpt>
      <trkpt lat="48.24293" lon="6.54414">
        <ele>335.5</ele>
        <time>2025-01-19T15:40:51Z</time>
      </trkpt>
      <trkpt lat="48.24285" lon="6.54421">
        <ele>335.4</ele>
        <time>2025-01-19T15:40:58Z</time>
      </trkpt>
      <trkpt lat="48.24278" lon="6.54429">
        <ele>335.3</ele>
        <time>2025-01-19T15:41:05Z</time>
      </trkpt>
      <trkpt lat="48.2427" lon="6.54436">
        <ele>335.2</ele>
        <time>2025-01-19T15:41:12Z</time>
      </trkpt>
      <trkpt lat="48.24262" lon="6.54443">
        <ele>334.9</ele>
        <time>2025-01-19T15:41:19Z</time>
      </trkpt>
      <trkpt lat="48.24253" lon="6.54451">
        <ele>334.5</ele>
        <time>2025-01-19T15:41:27Z</time>
      </trkpt>
      <trkpt lat="48.24245" lon="6.54458">
        <ele>334</ele>
        <time>2025-01-19T15:41:34Z</time>
      </trkpt>
      <trkpt lat="48.24236" lon="6.54465">
        <ele>333.6</ele>
        <time>2025-01-19T15:41:42Z</time>
      </trkpt>
      <trkpt lat="48.24228" lon="6.54472">
        <ele>333.3</ele>
        <time>2025-01-19T15:41:50Z</time>
      </trkpt>
      <trkpt lat="48.2422" lon="6.54479">
        <ele>333.2</ele>
        <time>2025-01-19T15:41:58Z</time>
      </trkpt>
      <trkpt lat="48.2422" lon="6.54479">
        <ele>333.2</ele>
        <time>2025-01-19T15:42:00Z</time>
      </trkpt>
      <trkpt lat="48.2422" lon="6.54479">
        <ele>333.2</ele>
        <time>2025-01-19T15:42:01Z</time>
      </trkpt>
      <trkpt lat="48.2422" lon="6.54479">
        <ele>333.2</ele>
        <time>2025-01-19T15:42:02Z</time>
      </trkpt>
      <trkpt lat="48.24219" lon="6.54479">
        <ele>333.2</ele>
        <time>2025-01-19T15:42:05Z</time>
      </trkpt>
      <trkpt lat="48.24218" lon="6.5448">
        <ele>333.2</ele>
        <time>2025-01-19T15:42:06Z</time>
      </trkpt>
      <trkpt lat="48.24217" lon="6.54481">
        <ele>333.2</ele>
        <time>2025-01-19T15:42:07Z</time>
      </trkpt>
      <trkpt lat="48.24208" lon="6.54487">
        <ele>333</ele>
        <time>2025-01-19T15:42:15Z</time>
      </trkpt>
      <trkpt lat="48.24199" lon="6.54494">
        <ele>332.8</ele>
        <time>2025-01-19T15:42:23Z</time>
      </trkpt>
      <trkpt lat="48.24191" lon="6.54501">
        <ele>332.4</ele>
        <time>2025-01-19T15:42:30Z</time>
      </trkpt>
      <trkpt lat="48.24183" lon="6.54506">
        <ele>332.1</ele>
        <time>2025-01-19T15:42:37Z</time>
      </trkpt>
      <trkpt lat="48.24173" lon="6.54512">
        <ele>331.9</ele>
        <time>2025-01-19T15:42:45Z</time>
      </trkpt>
      <trkpt lat="48.24164" lon="6.54517">
        <ele>331.7</ele>
        <time>2025-01-19T15:42:53Z</time>
      </trkpt>
      <trkpt lat="48.24156" lon="6.54523">
        <ele>331.4</ele>
        <time>2025-01-19T15:43:00Z</time>
      </trkpt>
      <trkpt lat="48.24147" lon="6.54529">
        <ele>331</ele>
        <time>2025-01-19T15:43:07Z</time>
      </trkpt>
      <trkpt lat="48.24138" lon="6.54534">
        <ele>330.6</ele>
        <time>2025-01-19T15:43:14Z</time>
      </trkpt>
      <trkpt lat="48.2413" lon="6.54539">
        <ele>330.2</ele>
        <time>2025-01-19T15:43:21Z</time>
      </trkpt>
      <trkpt lat="48.24121" lon="6.54545">
        <ele>330.1</ele>
        <time>2025-01-19T15:43:29Z</time>
      </trkpt>
      <trkpt lat="48.24112" lon="6.5455">
        <ele>330</ele>
        <time>2025-01-19T15:43:36Z</time>
      </trkpt>
      <trkpt lat="48.24104" lon="6.54554">
        <ele>330.1</ele>
        <time>2025-01-19T15:43:43Z</time>
      </trkpt>
      <trkpt lat="48.24095" lon="6.54559">
        <ele>330.2</ele>
        <time>2025-01-19T15:43:50Z</time>
      </trkpt>
      <trkpt lat="48.24086" lon="6.54564">
        <ele>330.4</ele>
        <time>2025-01-19T15:43:57Z</time>
      </trkpt>
      <trkpt lat="48.24078" lon="6.54569">
        <ele>330.8</ele>
        <time>2025-01-19T15:44:04Z</time>
      </trkpt>
      <trkpt lat="48.2407" lon="6.54576">
        <ele>331.3</ele>
        <time>2025-01-19T15:44:11Z</time>
      </trkpt>
      <trkpt lat="48.24063" lon="6.54585">
        <ele>332</ele>
        <time>2025-01-19T15:44:18Z</time>
      </trkpt>
      <trkpt lat="48.24056" lon="6.54596">
        <ele>332.9</ele>
        <time>2025-01-19T15:44:26Z</time>
      </trkpt>
      <trkpt lat="48.24049" lon="6.54606">
        <ele>334</ele>
        <time>2025-01-19T15:44:34Z</time>
      </trkpt>
      <trkpt lat="48.24042" lon="6.54616">
        <ele>335.2</ele>
        <time>2025-01-19T15:44:42Z</time>
      </trkpt>
      <trkpt lat="48.24035" lon="6.54625">
        <ele>336.4</ele>
        <time>2025-01-19T15:44:49Z</time>
      </trkpt>
      <trkpt lat="48.24028" lon="6.54635">
        <ele>337.4</ele>
        <time>2025-01-19T15:44:57Z</time>
      </trkpt>
      <trkpt lat="48.24019" lon="6.54642">
        <ele>338.3</ele>
        <time>2025-01-19T15:45:04Z</time>
      </trkpt>
      <trkpt lat="48.24012" lon="6.5465">
        <ele>339.1</ele>
        <time>2025-01-19T15:45:11Z</time>
      </trkpt>
      <trkpt lat="48.24005" lon="6.54659">
        <ele>340</ele>
        <time>2025-01-19T15:45:18Z</time>
      </trkpt>
      <trkpt lat="48.23998" lon="6.54669">
        <ele>340.9</ele>
        <time>2025-01-19T15:45:25Z</time>
      </trkpt>
      <trkpt lat="48.23991" lon="6.54679">
        <ele>341.9</ele>
        <time>2025-01-19T15:45:32Z</time>
      </trkpt>
      <trkpt lat="48.23985" lon="6.5469">
        <ele>343.1</ele>
        <time>2025-01-19T15:45:39Z</time>
      </trkpt>
      <trkpt lat="48.23978" lon="6.54699">
        <ele>344.4</ele>
        <time>2025-01-19T15:45:46Z</time>
      </trkpt>
      <trkpt lat="48.23971" lon="6.54708">
        <ele>345.6</ele>
        <time>2025-01-19T15:45:53Z</time>
      </trkpt>
      <trkpt lat="48.23964" lon="6.54718">
        <ele>346.6</ele>
        <time>2025-01-19T15:46:00Z</time>
      </trkpt>
      <trkpt lat="48.23958" lon="6.54727">
        <ele>347.2</ele>
        <time>2025-01-19T15:46:08Z</time>
      </trkpt>
      <trkpt lat="48.23949" lon="6.54734">
        <ele>347.3</ele>
        <time>2025-01-19T15:46:16Z</time>
      </trkpt>
      <trkpt lat="48.23942" lon="6.54742">
        <ele>347.1</ele>
        <time>2025-01-19T15:46:24Z</time>
      </trkpt>
      <trkpt lat="48.23936" lon="6.54753">
        <ele>346.5</ele>
        <time>2025-01-19T15:46:32Z</time>
      </trkpt>
      <trkpt lat="48.2393" lon="6.54764">
        <ele>345.8</ele>
        <time>2025-01-19T15:46:40Z</time>
      </trkpt>
      <trkpt lat="48.23924" lon="6.54775">
        <ele>345.3</ele>
        <time>2025-01-19T15:46:48Z</time>
      </trkpt>
      <trkpt lat="48.23918" lon="6.54786">
        <ele>345</ele>
        <time>2025-01-19T15:46:56Z</time>
      </trkpt>
      <trkpt lat="48.23912" lon="6.54797">
        <ele>344.9</ele>
        <time>2025-01-19T15:47:04Z</time>
      </trkpt>
      <trkpt lat="48.23907" lon="6.54808">
        <ele>344.9</ele>
        <time>2025-01-19T15:47:11Z</time>
      </trkpt>
      <trkpt lat="48.239" lon="6.5482">
        <ele>345</ele>
        <time>2025-01-19T15:47:19Z</time>
      </trkpt>
      <trkpt lat="48.23894" lon="6.54831">
        <ele>345.2</ele>
        <time>2025-01-19T15:47:26Z</time>
      </trkpt>
      <trkpt lat="48.23888" lon="6.54843">
        <ele>345.3</ele>
        <time>2025-01-19T15:47:34Z</time>
      </trkpt>
      <trkpt lat="48.23882" lon="6.54854">
        <ele>345.5</ele>
        <time>2025-01-19T15:47:42Z</time>
      </trkpt>
      <trkpt lat="48.23876" lon="6.54865">
        <ele>345.7</ele>
        <time>2025-01-19T15:47:50Z</time>
      </trkpt>
      <trkpt lat="48.2387" lon="6.54879">
        <ele>346.1</ele>
        <time>2025-01-19T15:47:58Z</time>
      </trkpt>
      <trkpt lat="48.23865" lon="6.54891">
        <ele>346.7</ele>
        <time>2025-01-19T15:48:06Z</time>
      </trkpt>
      <trkpt lat="48.23859" lon="6.54903">
        <ele>347.5</ele>
        <time>2025-01-19T15:48:14Z</time>
      </trkpt>
      <trkpt lat="48.23852" lon="6.54914">
        <ele>348.4</ele>
        <time>2025-01-19T15:48:22Z</time>
      </trkpt>
      <trkpt lat="48.23845" lon="6.54924">
        <ele>349.1</ele>
        <time>2025-01-19T15:48:30Z</time>
      </trkpt>
      <trkpt lat="48.23838" lon="6.54935">
        <ele>349.7</ele>
        <time>2025-01-19T15:48:38Z</time>
      </trkpt>
      <trkpt lat="48.23832" lon="6.54944">
        <ele>350</ele>
        <time>2025-01-19T15:48:45Z</time>
      </trkpt>
      <trkpt lat="48.23825" lon="6.54954">
        <ele>350</ele>
        <time>2025-01-19T15:48:52Z</time>
      </trkpt>
      <trkpt lat="48.23818" lon="6.54964">
        <ele>349.7</ele>
        <time>2025-01-19T15:48:59Z</time>
      </trkpt>
      <trkpt lat="48.2381" lon="6.54973">
        <ele>349.3</ele>
        <time>2025-01-19T15:49:06Z</time>
      </trkpt>
      <trkpt lat="48.23803" lon="6.54982">
        <ele>349</ele>
        <time>2025-01-19T15:49:13Z</time>
      </trkpt>
      <trkpt lat="48.23797" lon="6.54992">
        <ele>348.9</ele>
        <time>2025-01-19T15:49:20Z</time>
      </trkpt>
      <trkpt lat="48.2379" lon="6.55">
        <ele>348.9</ele>
        <time>2025-01-19T15:49:27Z</time>
      </trkpt>
      <trkpt lat="48.23782" lon="6.55009">
        <ele>348.9</ele>
        <time>2025-01-19T15:49:34Z</time>
      </trkpt>
      <trkpt lat="48.23776" lon="6.5502">
        <ele>348.9</ele>
        <time>2025-01-19T15:49:41Z</time>
      </trkpt>
      <trkpt lat="48.23769" lon="6.5503">
        <ele>348.7</ele>
        <time>2025-01-19T15:49:48Z</time>
      </trkpt>
      <trkpt lat="48.23761" lon="6.55039">
        <ele>348.4</ele>
        <time>2025-01-19T15:49:55Z</time>
      </trkpt>
      <trkpt lat="48.23754" lon="6.55048">
        <ele>348.1</ele>
        <time>2025-01-19T15:50:02Z</time>
      </trkpt>
      <trkpt lat="48.23745" lon="6.55057">
        <ele>348.1</ele>
        <time>2025-01-19T15:50:10Z</time>
      </trkpt>
      <trkpt lat="48.23737" lon="6.55065">
        <ele>348.2</ele>
        <time>2025-01-19T15:50:18Z</time>
      </trkpt>
      <trkpt lat="48.23731" lon="6.55077">
        <ele>348.3</ele>
        <time>2025-01-19T15:50:26Z</time>
      </trkpt>
      <trkpt lat="48.23723" lon="6.55086">
        <ele>348.2</ele>
        <time>2025-01-19T15:50:33Z</time>
      </trkpt>
      <trkpt lat="48.23714" lon="6.55092">
        <ele>348.1</ele>
        <time>2025-01-19T15:50:40Z</time>
      </trkpt>
      <trkpt lat="48.23709" lon="6.55105">
        <ele>347.8</ele>
        <time>2025-01-19T15:50:48Z</time>
      </trkpt>
      <trkpt lat="48.23701" lon="6.55114">
        <ele>347.4</ele>
        <time>2025-01-19T15:50:55Z</time>
      </trkpt>
      <trkpt lat="48.23692" lon="6.5512">
        <ele>346.8</ele>
        <time>2025-01-19T15:51:03Z</time>
      </trkpt>
      <trkpt lat="48.23683" lon="6.55124">
        <ele>346.2</ele>
        <time>2025-01-19T15:51:10Z</time>
      </trkpt>
      <trkpt lat="48.23674" lon="6.55127">
        <ele>345.5</ele>
        <time>2025-01-19T15:51:17Z</time>
      </trkpt>
      <trkpt lat="48.23665" lon="6.55129">
        <ele>344.7</ele>
        <time>2025-01-19T15:51:24Z</time>
      </trkpt>
      <trkpt lat="48.23656" lon="6.55129">
        <ele>344</ele>
        <time>2025-01-19T15:51:31Z</time>
      </trkpt>
      <trkpt lat="48.23647" lon="6.55125">
        <ele>343.2</ele>
        <time>2025-01-19T15:51:38Z</time>
      </trkpt>
      <trkpt lat="48.23638" lon="6.55129">
        <ele>342.5</ele>
        <time>2025-01-19T15:51:44Z</time>
      </trkpt>
      <trkpt lat="48.23629" lon="6.55131">
        <ele>341.9</ele>
        <time>2025-01-19T15:51:51Z</time>
      </trkpt>
      <trkpt lat="48.23619" lon="6.5513">
        <ele>341.3</ele>
        <time>2025-01-19T15:51:59Z</time>
      </trkpt>
      <trkpt lat="48.23609" lon="6.5513">
        <ele>340.8</ele>
        <time>2025-01-19T15:52:06Z</time>
      </trkpt>
      <trkpt lat="48.236" lon="6.55131">
        <ele>340.2</ele>
        <time>2025-01-19T15:52:14Z</time>
      </trkpt>
      <trkpt lat="48.2359" lon="6.55131">
        <ele>339.5</ele>
        <time>2025-01-19T15:52:22Z</time>
      </trkpt>
      <trkpt lat="48.2358" lon="6.55131">
        <ele>339.1</ele>
        <time>2025-01-19T15:52:30Z</time>
      </trkpt>
      <trkpt lat="48.2357" lon="6.5513">
        <ele>338.8</ele>
        <time>2025-01-19T15:52:38Z</time>
      </trkpt>
      <trkpt lat="48.23561" lon="6.55131">
        <ele>338.6</ele>
        <time>2025-01-19T15:52:45Z</time>
      </trkpt>
      <trkpt lat="48.23558" lon="6.55131">
        <ele>338.6</ele>
        <time>2025-01-19T15:52:50Z</time>
      </trkpt>
      <trkpt lat="48.23558" lon="6.55131">
        <ele>338.6</ele>
        <time>2025-01-19T15:52:51Z</time>
      </trkpt>
      <trkpt lat="48.23557" lon="6.55131">
        <ele>338.6</ele>
        <time>2025-01-19T15:52:52Z</time>
      </trkpt>
      <trkpt lat="48.23557" lon="6.55131">
        <ele>338.6</ele>
        <time>2025-01-19T15:52:53Z</time>
      </trkpt>
      <trkpt lat="48.23555" lon="6.55131">
        <ele>338.6</ele>
        <time>2025-01-19T15:52:54Z</time>
      </trkpt>
      <trkpt lat="48.23554" lon="6.55131">
        <ele>338.7</ele>
        <time>2025-01-19T15:52:55Z</time>
      </trkpt>
      <trkpt lat="48.23545" lon="6.55131">
        <ele>338.7</ele>
        <time>2025-01-19T15:53:03Z</time>
      </trkpt>
      <trkpt lat="48.23536" lon="6.55131">
        <ele>338.9</ele>
        <time>2025-01-19T15:53:11Z</time>
      </trkpt>
      <trkpt lat="48.23526" lon="6.5513">
        <ele>339</ele>
        <time>2025-01-19T15:53:19Z</time>
      </trkpt>
      <trkpt lat="48.23517" lon="6.5513">
        <ele>339.3</ele>
        <time>2025-01-19T15:53:27Z</time>
      </trkpt>
      <trkpt lat="48.23507" lon="6.5513">
        <ele>339.5</ele>
        <time>2025-01-19T15:53:36Z</time>
      </trkpt>
      <trkpt lat="48.23502" lon="6.55131">
        <ele>339.7</ele>
        <time>2025-01-19T15:53:44Z</time>
      </trkpt>
      <trkpt lat="48.23502" lon="6.55131">
        <ele>339.7</ele>
        <time>2025-01-19T15:53:45Z</time>
      </trkpt>
      <trkpt lat="48.23501" lon="6.55131">
        <ele>339.8</ele>
        <time>2025-01-19T15:53:46Z</time>
      </trkpt>
      <trkpt lat="48.235" lon="6.55131">
        <ele>339.8</ele>
        <time>2025-01-19T15:53:47Z</time>
      </trkpt>
      <trkpt lat="48.23494" lon="6.5512">
        <ele>340.2</ele>
        <time>2025-01-19T15:53:58Z</time>
      </trkpt>
      <trkpt lat="48.23489" lon="6.55109">
        <ele>340.3</ele>
        <time>2025-01-19T15:54:06Z</time>
      </trkpt>
      <trkpt lat="48.23483" lon="6.55096">
        <ele>340.6</ele>
        <time>2025-01-19T15:54:15Z</time>
      </trkpt>
      <trkpt lat="48.23478" lon="6.55084">
        <ele>340.8</ele>
        <time>2025-01-19T15:54:23Z</time>
      </trkpt>
      <trkpt lat="48.23472" lon="6.55073">
        <ele>341</ele>
        <time>2025-01-19T15:54:31Z</time>
      </trkpt>
      <trkpt lat="48.23467" lon="6.55061">
        <ele>341.2</ele>
        <time>2025-01-19T15:54:39Z</time>
      </trkpt>
      <trkpt lat="48.2346" lon="6.55051">
        <ele>341.5</ele>
        <time>2025-01-19T15:54:47Z</time>
      </trkpt>
      <trkpt lat="48.23455" lon="6.55038">
        <ele>341.6</ele>
        <time>2025-01-19T15:54:55Z</time>
      </trkpt>
      <trkpt lat="48.23449" lon="6.55028">
        <ele>341.7</ele>
        <time>2025-01-19T15:55:03Z</time>
      </trkpt>
      <trkpt lat="48.2344" lon="6.55025">
        <ele>341.3</ele>
        <time>2025-01-19T15:55:21Z</time>
      </trkpt>
      <trkpt lat="48.23431" lon="6.55032">
        <ele>340.8</ele>
        <time>2025-01-19T15:55:30Z</time>
      </trkpt>
      <trkpt lat="48.23422" lon="6.55039">
        <ele>340.2</ele>
        <time>2025-01-19T15:55:39Z</time>
      </trkpt>
      <trkpt lat="48.23414" lon="6.55046">
        <ele>339.7</ele>
        <time>2025-01-19T15:55:47Z</time>
      </trkpt>
      <trkpt lat="48.23405" lon="6.55052">
        <ele>339.3</ele>
        <time>2025-01-19T15:55:55Z</time>
      </trkpt>
      <trkpt lat="48.23397" lon="6.55058">
        <ele>338.9</ele>
        <time>2025-01-19T15:56:03Z</time>
      </trkpt>
      <trkpt lat="48.23388" lon="6.55065">
        <ele>338.4</ele>
        <time>2025-01-19T15:56:11Z</time>
      </trkpt>
      <trkpt lat="48.23379" lon="6.55071">
        <ele>337.9</ele>
        <time>2025-01-19T15:56:19Z</time>
      </trkpt>
      <trkpt lat="48.2337" lon="6.55078">
        <ele>337.4</ele>
        <time>2025-01-19T15:56:27Z</time>
      </trkpt>
      <trkpt lat="48.23362" lon="6.55084">
        <ele>336.9</ele>
        <time>2025-01-19T15:56:35Z</time>
      </trkpt>
      <trkpt lat="48.23353" lon="6.55091">
        <ele>336.4</ele>
        <time>2025-01-19T15:56:43Z</time>
      </trkpt>
      <trkpt lat="48.23348" lon="6.55095">
        <ele>336.1</ele>
        <time>2025-01-19T15:56:51Z</time>
      </trkpt>
      <trkpt lat="48.23348" lon="6.55095">
        <ele>336.1</ele>
        <time>2025-01-19T15:56:52Z</time>
      </trkpt>
      <trkpt lat="48.23347" lon="6.55095">
        <ele>336.1</ele>
        <time>2025-01-19T15:56:53Z</time>
      </trkpt>
      <trkpt lat="48.23346" lon="6.55096">
        <ele>336</ele>
        <time>2025-01-19T15:56:54Z</time>
      </trkpt>
      <trkpt lat="48.23345" lon="6.55097">
        <ele>335.9</ele>
        <time>2025-01-19T15:56:55Z</time>
      </trkpt>
      <trkpt lat="48.23336" lon="6.55104">
        <ele>335.3</ele>
        <time>2025-01-19T15:57:04Z</time>
      </trkpt>
      <trkpt lat="48.23328" lon="6.55111">
        <ele>334.8</ele>
        <time>2025-01-19T15:57:12Z</time>
      </trkpt>
      <trkpt lat="48.2332" lon="6.55117">
        <ele>334.3</ele>
        <time>2025-01-19T15:57:20Z</time>
      </trkpt>
      <trkpt lat="48.23311" lon="6.55124">
        <ele>333.8</ele>
        <time>2025-01-19T15:57:28Z</time>
      </trkpt>
      <trkpt lat="48.23302" lon="6.5513">
        <ele>333.4</ele>
        <time>2025-01-19T15:57:36Z</time>
      </trkpt>
      <trkpt lat="48.23294" lon="6.55136">
        <ele>333</ele>
        <time>2025-01-19T15:57:44Z</time>
      </trkpt>
      <trkpt lat="48.23285" lon="6.55142">
        <ele>332.6</ele>
        <time>2025-01-19T15:57:53Z</time>
      </trkpt>
      <trkpt lat="48.23277" lon="6.55148">
        <ele>332.3</ele>
        <time>2025-01-19T15:58:02Z</time>
      </trkpt>
      <trkpt lat="48.23268" lon="6.55154">
        <ele>332</ele>
        <time>2025-01-19T15:58:11Z</time>
      </trkpt>
      <trkpt lat="48.23268" lon="6.55155">
        <ele>332</ele>
        <time>2025-01-19T15:58:16Z</time>
      </trkpt>
      <trkpt lat="48.23268" lon="6.55155">
        <ele>332</ele>
        <time>2025-01-19T15:58:17Z</time>
      </trkpt>
      <trkpt lat="48.23268" lon="6.55155">
        <ele>332</ele>
        <time>2025-01-19T15:58:18Z</time>
      </trkpt>
      <trkpt lat="48.23265" lon="6.55157">
        <ele>332</ele>
        <time>2025-01-19T15:58:56Z</time>
      </trkpt>
      <trkpt lat="48.23264" lon="6.55157">
        <ele>331.9</ele>
        <time>2025-01-19T15:58:57Z</time>
      </trkpt>
      <trkpt lat="48.23263" lon="6.55158">
        <ele>331.9</ele>
        <time>2025-01-19T15:58:58Z</time>
      </trkpt>
      <trkpt lat="48.23254" lon="6.55164">
        <ele>331.7</ele>
        <time>2025-01-19T15:59:07Z</time>
      </trkpt>
      <trkpt lat="48.23251" lon="6.55167">
        <ele>331.7</ele>
        <time>2025-01-19T15:59:13Z</time>
      </trkpt>
      <trkpt lat="48.23251" lon="6.55167">
        <ele>331.7</ele>
        <time>2025-01-19T15:59:14Z</time>
      </trkpt>
      <trkpt lat="48.23251" lon="6.55167">
        <ele>331.7</ele>
        <time>2025-01-19T15:59:15Z</time>
      </trkpt>
      <trkpt lat="48.23251" lon="6.55167">
        <ele>331.7</ele>
        <time>2025-01-19T15:59:23Z</time>
      </trkpt>
      <trkpt lat="48.23251" lon="6.55167">
        <ele>331.7</ele>
        <time>2025-01-19T15:59:24Z</time>
      </trkpt>
      <trkpt lat="48.23251" lon="6.55167">
        <ele>331.7</ele>
        <time>2025-01-19T15:59:25Z</time>
      </trkpt>
      <trkpt lat="48.23251" lon="6.55167">
        <ele>331.7</ele>
        <time>2025-01-19T15:59:26Z</time>
      </trkpt>
      <trkpt lat="48.23251" lon="6.55167">
        <ele>331.7</ele>
        <time>2025-01-19T15:59:27Z</time>
      </trkpt>
      <trkpt lat="48.2325" lon="6.55169">
        <ele>331.7</ele>
        <time>2025-01-19T15:59:31Z</time>
      </trkpt>
      <trkpt lat="48.23249" lon="6.55169">
        <ele>331.7</ele>
        <time>2025-01-19T15:59:32Z</time>
      </trkpt>
      <trkpt lat="48.23248" lon="6.5517">
        <ele>331.7</ele>
        <time>2025-01-19T15:59:33Z</time>
      </trkpt>
      <trkpt lat="48.23246" lon="6.55172">
        <ele>331.7</ele>
        <time>2025-01-19T15:59:40Z</time>
      </trkpt>
      <trkpt lat="48.23246" lon="6.55172">
        <ele>331.7</ele>
        <time>2025-01-19T15:59:41Z</time>
      </trkpt>
      <trkpt lat="48.23246" lon="6.55172">
        <ele>331.7</ele>
        <time>2025-01-19T15:59:42Z</time>
      </trkpt>
      <trkpt lat="48.23246" lon="6.55172">
        <ele>331.7</ele>
        <time>2025-01-19T15:59:55Z</time>
      </trkpt>
      <trkpt lat="48.23246" lon="6.55172">
        <ele>331.7</ele>
        <time>2025-01-19T15:59:56Z</time>
      </trkpt>
      <trkpt lat="48.23246" lon="6.55172">
        <ele>331.7</ele>
        <time>2025-01-19T15:59:57Z</time>
      </trkpt>
      <trkpt lat="48.23246" lon="6.55172">
        <ele>331.7</ele>
        <time>2025-01-19T15:59:58Z</time>
      </trkpt>
      <trkpt lat="48.23246" lon="6.55172">
        <ele>331.7</ele>
        <time>2025-01-19T15:59:59Z</time>
      </trkpt>
      <trkpt lat="48.23249" lon="6.5517">
        <ele>331.6</ele>
        <time>2025-01-19T16:00:03Z</time>
      </trkpt>
      <trkpt lat="48.2325" lon="6.55169">
        <ele>331.6</ele>
        <time>2025-01-19T16:00:04Z</time>
      </trkpt>
      <trkpt lat="48.23251" lon="6.55168">
        <ele>331.6</ele>
        <time>2025-01-19T16:00:05Z</time>
      </trkpt>
      <trkpt lat="48.23259" lon="6.55161">
        <ele>331.7</ele>
        <time>2025-01-19T16:00:13Z</time>
      </trkpt>
      <trkpt lat="48.23268" lon="6.55155">
        <ele>331.8</ele>
        <time>2025-01-19T16:00:20Z</time>
      </trkpt>
      <trkpt lat="48.23273" lon="6.55151">
        <ele>331.9</ele>
        <time>2025-01-19T16:00:30Z</time>
      </trkpt>
      <trkpt lat="48.23273" lon="6.55151">
        <ele>331.9</ele>
        <time>2025-01-19T16:00:31Z</time>
      </trkpt>
      <trkpt lat="48.23273" lon="6.55151">
        <ele>331.9</ele>
        <time>2025-01-19T16:00:32Z</time>
      </trkpt>
      <trkpt lat="48.23273" lon="6.55151">
        <ele>331.9</ele>
        <time>2025-01-19T16:00:33Z</time>
      </trkpt>
      <trkpt lat="48.23273" lon="6.55151">
        <ele>331.9</ele>
        <time>2025-01-19T16:00:34Z</time>
      </trkpt>
      <trkpt lat="48.23273" lon="6.55151">
        <ele>331.9</ele>
        <time>2025-01-19T16:00:35Z</time>
      </trkpt>
      <trkpt lat="48.23273" lon="6.55151">
        <ele>331.9</ele>
        <time>2025-01-19T16:00:36Z</time>
      </trkpt>
      <trkpt lat="48.23273" lon="6.55151">
        <ele>331.9</ele>
        <time>2025-01-19T16:00:37Z</time>
      </trkpt>
      <trkpt lat="48.23274" lon="6.5515">
        <ele>332</ele>
        <time>2025-01-19T16:00:38Z</time>
      </trkpt>
      <trkpt lat="48.23275" lon="6.55149">
        <ele>332</ele>
        <time>2025-01-19T16:00:39Z</time>
      </trkpt>
      <trkpt lat="48.23284" lon="6.55142">
        <ele>332.3</ele>
        <time>2025-01-19T16:00:46Z</time>
      </trkpt>
      <trkpt lat="48.23294" lon="6.55135">
        <ele>332.7</ele>
        <time>2025-01-19T16:00:53Z</time>
      </trkpt>
      <trkpt lat="48.23303" lon="6.55129">
        <ele>333.1</ele>
        <time>2025-01-19T16:01:00Z</time>
      </trkpt>
      <trkpt lat="48.23312" lon="6.55122">
        <ele>333.5</ele>
        <time>2025-01-19T16:01:07Z</time>
      </trkpt>
      <trkpt lat="48.23321" lon="6.55116">
        <ele>334</ele>
        <time>2025-01-19T16:01:14Z</time>
      </trkpt>
      <trkpt lat="48.23329" lon="6.55109">
        <ele>334.5</ele>
        <time>2025-01-19T16:01:21Z</time>
      </trkpt>
      <trkpt lat="48.23338" lon="6.55103">
        <ele>335.1</ele>
        <time>2025-01-19T16:01:28Z</time>
      </trkpt>
      <trkpt lat="48.23346" lon="6.55096">
        <ele>335.7</ele>
        <time>2025-01-19T16:01:35Z</time>
      </trkpt>
      <trkpt lat="48.23355" lon="6.55089">
        <ele>336.3</ele>
        <time>2025-01-19T16:01:42Z</time>
      </trkpt>
      <trkpt lat="48.23364" lon="6.55083">
        <ele>336.8</ele>
        <time>2025-01-19T16:01:49Z</time>
      </trkpt>
      <trkpt lat="48.23372" lon="6.55077">
        <ele>337.3</ele>
        <time>2025-01-19T16:01:56Z</time>
      </trkpt>
      <trkpt lat="48.2338" lon="6.5507">
        <ele>337.8</ele>
        <time>2025-01-19T16:02:03Z</time>
      </trkpt>
      <trkpt lat="48.23389" lon="6.55064">
        <ele>338.3</ele>
        <time>2025-01-19T16:02:10Z</time>
      </trkpt>
      <trkpt lat="48.23397" lon="6.55057">
        <ele>338.8</ele>
        <time>2025-01-19T16:02:17Z</time>
      </trkpt>
      <trkpt lat="48.23406" lon="6.55053">
        <ele>339.3</ele>
        <time>2025-01-19T16:02:24Z</time>
      </trkpt>
      <trkpt lat="48.23414" lon="6.55046">
        <ele>339.7</ele>
        <time>2025-01-19T16:02:33Z</time>
      </trkpt>
      <trkpt lat="48.23422" lon="6.55039">
        <ele>340.2</ele>
        <time>2025-01-19T16:02:40Z</time>
      </trkpt>
      <trkpt lat="48.23431" lon="6.55032">
        <ele>340.8</ele>
        <time>2025-01-19T16:02:48Z</time>
      </trkpt>
      <trkpt lat="48.23439" lon="6.55025">
        <ele>341.3</ele>
        <time>2025-01-19T16:02:55Z</time>
      </trkpt>
      <trkpt lat="48.23448" lon="6.55026">
        <ele>341.7</ele>
        <time>2025-01-19T16:03:02Z</time>
      </trkpt>
      <trkpt lat="48.23455" lon="6.55036">
        <ele>341.6</ele>
        <time>2025-01-19T16:03:09Z</time>
      </trkpt>
      <trkpt lat="48.23462" lon="6.55047">
        <ele>341.5</ele>
        <time>2025-01-19T16:03:16Z</time>
      </trkpt>
      <trkpt lat="48.23468" lon="6.55059">
        <ele>341.3</ele>
        <time>2025-01-19T16:03:23Z</time>
      </trkpt>
      <trkpt lat="48.23471" lon="6.55068">
        <ele>341.1</ele>
        <time>2025-01-19T16:03:33Z</time>
      </trkpt>
      <trkpt lat="48.23471" lon="6.55069">
        <ele>341.1</ele>
        <time>2025-01-19T16:03:34Z</time>
      </trkpt>
      <trkpt lat="48.23471" lon="6.55071">
        <ele>341.1</ele>
        <time>2025-01-19T16:03:35Z</time>
      </trkpt>
      <trkpt lat="48.2347" lon="6.55072">
        <ele>341.1</ele>
        <time>2025-01-19T16:03:36Z</time>
      </trkpt>
      <trkpt lat="48.23469" lon="6.55072">
        <ele>341.1</ele>
        <time>2025-01-19T16:03:37Z</time>
      </trkpt>
      <trkpt lat="48.23469" lon="6.55071">
        <ele>341</ele>
        <time>2025-01-19T16:03:54Z</time>
      </trkpt>
      <trkpt lat="48.2347" lon="6.55072">
        <ele>341</ele>
        <time>2025-01-19T16:03:55Z</time>
      </trkpt>
      <trkpt lat="48.23477" lon="6.55084">
        <ele>340.8</ele>
        <time>2025-01-19T16:03:59Z</time>
      </trkpt>
      <trkpt lat="48.23482" lon="6.55092">
        <ele>340.6</ele>
        <time>2025-01-19T16:04:01Z</time>
      </trkpt>
      <trkpt lat="48.23484" lon="6.55097">
        <ele>340.5</ele>
        <time>2025-01-19T16:04:02Z</time>
      </trkpt>
      <trkpt lat="48.23491" lon="6.55112">
        <ele>340.3</ele>
        <time>2025-01-19T16:04:05Z</time>
      </trkpt>
      <trkpt lat="48.23495" lon="6.55125">
        <ele>340.1</ele>
        <time>2025-01-19T16:04:07Z</time>
      </trkpt>
      <trkpt lat="48.23497" lon="6.55138">
        <ele>340</ele>
        <time>2025-01-19T16:04:09Z</time>
      </trkpt>
      <trkpt lat="48.235" lon="6.55157">
        <ele>339.8</ele>
        <time>2025-01-19T16:04:12Z</time>
      </trkpt>
      <trkpt lat="48.23502" lon="6.55171">
        <ele>339.6</ele>
        <time>2025-01-19T16:04:15Z</time>
      </trkpt>
      <trkpt lat="48.23505" lon="6.55189">
        <ele>339.4</ele>
        <time>2025-01-19T16:04:19Z</time>
      </trkpt>
      <trkpt lat="48.23507" lon="6.55202">
        <ele>339.3</ele>
        <time>2025-01-19T16:04:22Z</time>
      </trkpt>
      <trkpt lat="48.2351" lon="6.55215">
        <ele>339.3</ele>
        <time>2025-01-19T16:04:25Z</time>
      </trkpt>
      <trkpt lat="48.23513" lon="6.55232">
        <ele>339.2</ele>
        <time>2025-01-19T16:04:29Z</time>
      </trkpt>
      <trkpt lat="48.23515" lon="6.55246">
        <ele>339.1</ele>
        <time>2025-01-19T16:04:32Z</time>
      </trkpt>
      <trkpt lat="48.23518" lon="6.55264">
        <ele>339.1</ele>
        <time>2025-01-19T16:04:36Z</time>
      </trkpt>
      <trkpt lat="48.23521" lon="6.55279">
        <ele>339.1</ele>
        <time>2025-01-19T16:04:39Z</time>
      </trkpt>
      <trkpt lat="48.23525" lon="6.55295">
        <ele>339</ele>
        <time>2025-01-19T16:04:42Z</time>
      </trkpt>
      <trkpt lat="48.23529" lon="6.55309">
        <ele>339</ele>
        <time>2025-01-19T16:04:45Z</time>
      </trkpt>
      <trkpt lat="48.23533" lon="6.55321">
        <ele>338.8</ele>
        <time>2025-01-19T16:04:48Z</time>
      </trkpt>
      <trkpt lat="48.23537" lon="6.55333">
        <ele>338.7</ele>
        <time>2025-01-19T16:04:51Z</time>
      </trkpt>
      <trkpt lat="48.23543" lon="6.55345">
        <ele>338.5</ele>
        <time>2025-01-19T16:04:54Z</time>
      </trkpt>
      <trkpt lat="48.23552" lon="6.55353">
        <ele>338.3</ele>
        <time>2025-01-19T16:04:57Z</time>
      </trkpt>
      <trkpt lat="48.23564" lon="6.55355">
        <ele>338</ele>
        <time>2025-01-19T16:05:00Z</time>
      </trkpt>
      <trkpt lat="48.23574" lon="6.55355">
        <ele>337.6</ele>
        <time>2025-01-19T16:05:02Z</time>
      </trkpt>
      <trkpt lat="48.23584" lon="6.55354">
        <ele>337.1</ele>
        <time>2025-01-19T16:05:04Z</time>
      </trkpt>
      <trkpt lat="48.23594" lon="6.55352">
        <ele>336.7</ele>
        <time>2025-01-19T16:05:06Z</time>
      </trkpt>
      <trkpt lat="48.23604" lon="6.55351">
        <ele>336.2</ele>
        <time>2025-01-19T16:05:08Z</time>
      </trkpt>
      <trkpt lat="48.23613" lon="6.5535">
        <ele>335.8</ele>
        <time>2025-01-19T16:05:10Z</time>
      </trkpt>
      <trkpt lat="48.23623" lon="6.55349">
        <ele>335.4</ele>
        <time>2025-01-19T16:05:12Z</time>
      </trkpt>
      <trkpt lat="48.23633" lon="6.55348">
        <ele>335.1</ele>
        <time>2025-01-19T16:05:14Z</time>
      </trkpt>
      <trkpt lat="48.23643" lon="6.5535">
        <ele>334.9</ele>
        <time>2025-01-19T16:05:16Z</time>
      </trkpt>
      <trkpt lat="48.23652" lon="6.55356">
        <ele>334.6</ele>
        <time>2025-01-19T16:05:18Z</time>
      </trkpt>
      <trkpt lat="48.23658" lon="6.55367">
        <ele>334.3</ele>
        <time>2025-01-19T16:05:20Z</time>
      </trkpt>
      <trkpt lat="48.23667" lon="6.55389">
        <ele>333.9</ele>
        <time>2025-01-19T16:05:22Z</time>
      </trkpt>
      <trkpt lat="48.23672" lon="6.55401">
        <ele>333.7</ele>
        <time>2025-01-19T16:05:23Z</time>
      </trkpt>
      <trkpt lat="48.23676" lon="6.55414">
        <ele>333.6</ele>
        <time>2025-01-19T16:05:24Z</time>
      </trkpt>
      <trkpt lat="48.23682" lon="6.55426">
        <ele>333.5</ele>
        <time>2025-01-19T16:05:25Z</time>
      </trkpt>
      <trkpt lat="48.23687" lon="6.55438">
        <ele>333.3</ele>
        <time>2025-01-19T16:05:26Z</time>
      </trkpt>
      <trkpt lat="48.23693" lon="6.5545">
        <ele>333.2</ele>
        <time>2025-01-19T16:05:27Z</time>
      </trkpt>
      <trkpt lat="48.237" lon="6.55463">
        <ele>333.1</ele>
        <time>2025-01-19T16:05:28Z</time>
      </trkpt>
      <trkpt lat="48.23706" lon="6.55475">
        <ele>333</ele>
        <time>2025-01-19T16:05:29Z</time>
      </trkpt>
      <trkpt lat="48.23712" lon="6.55488">
        <ele>332.9</ele>
        <time>2025-01-19T16:05:30Z</time>
      </trkpt>
      <trkpt lat="48.23719" lon="6.55501">
        <ele>332.8</ele>
        <time>2025-01-19T16:05:31Z</time>
      </trkpt>
      <trkpt lat="48.23726" lon="6.55513">
        <ele>332.8</ele>
        <time>2025-01-19T16:05:32Z</time>
      </trkpt>
      <trkpt lat="48.23733" lon="6.55526">
        <ele>332.7</ele>
        <time>2025-01-19T16:05:33Z</time>
      </trkpt>
      <trkpt lat="48.23739" lon="6.5554">
        <ele>332.7</ele>
        <time>2025-01-19T16:05:34Z</time>
      </trkpt>
      <trkpt lat="48.23746" lon="6.55553">
        <ele>332.6</ele>
        <time>2025-01-19T16:05:35Z</time>
      </trkpt>
      <trkpt lat="48.23753" lon="6.55567">
        <ele>332.6</ele>
        <time>2025-01-19T16:05:36Z</time>
      </trkpt>
      <trkpt lat="48.23759" lon="6.55582">
        <ele>332.6</ele>
        <time>2025-01-19T16:05:37Z</time>
      </trkpt>
      <trkpt lat="48.23766" lon="6.55594">
        <ele>332.7</ele>
        <time>2025-01-19T16:05:38Z</time>
      </trkpt>
      <trkpt lat="48.23772" lon="6.55608">
        <ele>332.7</ele>
        <time>2025-01-19T16:05:39Z</time>
      </trkpt>
      <trkpt lat="48.23779" lon="6.55622">
        <ele>332.6</ele>
        <time>2025-01-19T16:05:40Z</time>
      </trkpt>
      <trkpt lat="48.23785" lon="6.55635">
        <ele>332.5</ele>
        <time>2025-01-19T16:05:41Z</time>
      </trkpt>
      <trkpt lat="48.23792" lon="6.55649">
        <ele>332.5</ele>
        <time>2025-01-19T16:05:42Z</time>
      </trkpt>
      <trkpt lat="48.23799" lon="6.55663">
        <ele>332.4</ele>
        <time>2025-01-19T16:05:43Z</time>
      </trkpt>
      <trkpt lat="48.23807" lon="6.55677">
        <ele>332.3</ele>
        <time>2025-01-19T16:05:44Z</time>
      </trkpt>
      <trkpt lat="48.23815" lon="6.5569">
        <ele>332.2</ele>
        <time>2025-01-19T16:05:45Z</time>
      </trkpt>
      <trkpt lat="48.23824" lon="6.55702">
        <ele>332.1</ele>
        <time>2025-01-19T16:05:46Z</time>
      </trkpt>
      <trkpt lat="48.23833" lon="6.55714">
        <ele>331.9</ele>
        <time>2025-01-19T16:05:47Z</time>
      </trkpt>
      <trkpt lat="48.23842" lon="6.55726">
        <ele>331.8</ele>
        <time>2025-01-19T16:05:48Z</time>
      </trkpt>
      <trkpt lat="48.23851" lon="6.55738">
        <ele>331.7</ele>
        <time>2025-01-19T16:05:49Z</time>
      </trkpt>
      <trkpt lat="48.23859" lon="6.5575">
        <ele>331.6</ele>
        <time>2025-01-19T16:05:50Z</time>
      </trkpt>
      <trkpt lat="48.23868" lon="6.55762">
        <ele>331.5</ele>
        <time>2025-01-19T16:05:51Z</time>
      </trkpt>
      <trkpt lat="48.23876" lon="6.55774">
        <ele>331.3</ele>
        <time>2025-01-19T16:05:52Z</time>
      </trkpt>
      <trkpt lat="48.23886" lon="6.55784">
        <ele>331.1</ele>
        <time>2025-01-19T16:05:53Z</time>
      </trkpt>
      <trkpt lat="48.23895" lon="6.55794">
        <ele>330.9</ele>
        <time>2025-01-19T16:05:54Z</time>
      </trkpt>
      <trkpt lat="48.23905" lon="6.55804">
        <ele>330.8</ele>
        <time>2025-01-19T16:05:55Z</time>
      </trkpt>
      <trkpt lat="48.23917" lon="6.55811">
        <ele>330.7</ele>
        <time>2025-01-19T16:05:56Z</time>
      </trkpt>
      <trkpt lat="48.23928" lon="6.55817">
        <ele>330.5</ele>
        <time>2025-01-19T16:05:57Z</time>
      </trkpt>
      <trkpt lat="48.23939" lon="6.55823">
        <ele>330.4</ele>
        <time>2025-01-19T16:05:58Z</time>
      </trkpt>
      <trkpt lat="48.2395" lon="6.55829">
        <ele>330.4</ele>
        <time>2025-01-19T16:05:59Z</time>
      </trkpt>
      <trkpt lat="48.23961" lon="6.55836">
        <ele>330.3</ele>
        <time>2025-01-19T16:06:00Z</time>
      </trkpt>
      <trkpt lat="48.23972" lon="6.55844">
        <ele>330.3</ele>
        <time>2025-01-19T16:06:01Z</time>
      </trkpt>
      <trkpt lat="48.23982" lon="6.55852">
        <ele>330.3</ele>
        <time>2025-01-19T16:06:02Z</time>
      </trkpt>
      <trkpt lat="48.23992" lon="6.5586">
        <ele>330.3</ele>
        <time>2025-01-19T16:06:03Z</time>
      </trkpt>
      <trkpt lat="48.24002" lon="6.55869">
        <ele>330.2</ele>
        <time>2025-01-19T16:06:04Z</time>
      </trkpt>
      <trkpt lat="48.24012" lon="6.55877">
        <ele>329.9</ele>
        <time>2025-01-19T16:06:05Z</time>
      </trkpt>
      <trkpt lat="48.24022" lon="6.55887">
        <ele>329.6</ele>
        <time>2025-01-19T16:06:06Z</time>
      </trkpt>
      <trkpt lat="48.24031" lon="6.55897">
        <ele>329.2</ele>
        <time>2025-01-19T16:06:07Z</time>
      </trkpt>
      <trkpt lat="48.24039" lon="6.55909">
        <ele>328.8</ele>
        <time>2025-01-19T16:06:08Z</time>
      </trkpt>
      <trkpt lat="48.24047" lon="6.55921">
        <ele>328.4</ele>
        <time>2025-01-19T16:06:09Z</time>
      </trkpt>
      <trkpt lat="48.24054" lon="6.55934">
        <ele>328</ele>
        <time>2025-01-19T16:06:10Z</time>
      </trkpt>
      <trkpt lat="48.2406" lon="6.55948">
        <ele>327.7</ele>
        <time>2025-01-19T16:06:11Z</time>
      </trkpt>
      <trkpt lat="48.24065" lon="6.55964">
        <ele>327.4</ele>
        <time>2025-01-19T16:06:12Z</time>
      </trkpt>
      <trkpt lat="48.24069" lon="6.55981">
        <ele>327.2</ele>
        <time>2025-01-19T16:06:13Z</time>
      </trkpt>
      <trkpt lat="48.24073" lon="6.55998">
        <ele>327.1</ele>
        <time>2025-01-19T16:06:14Z</time>
      </trkpt>
      <trkpt lat="48.24076" lon="6.56016">
        <ele>327.2</ele>
        <time>2025-01-19T16:06:15Z</time>
      </trkpt>
      <trkpt lat="48.2408" lon="6.56033">
        <ele>327.3</ele>
        <time>2025-01-19T16:06:16Z</time>
      </trkpt>
      <trkpt lat="48.24085" lon="6.5605">
        <ele>327.4</ele>
        <time>2025-01-19T16:06:17Z</time>
      </trkpt>
      <trkpt lat="48.24089" lon="6.56065">
        <ele>327.7</ele>
        <time>2025-01-19T16:06:18Z</time>
      </trkpt>
      <trkpt lat="48.24095" lon="6.5608">
        <ele>328.1</ele>
        <time>2025-01-19T16:06:19Z</time>
      </trkpt>
      <trkpt lat="48.24101" lon="6.56095">
        <ele>328.5</ele>
        <time>2025-01-19T16:06:20Z</time>
      </trkpt>
      <trkpt lat="48.24108" lon="6.56109">
        <ele>329</ele>
        <time>2025-01-19T16:06:21Z</time>
      </trkpt>
      <trkpt lat="48.24115" lon="6.56124">
        <ele>329.6</ele>
        <time>2025-01-19T16:06:22Z</time>
      </trkpt>
      <trkpt lat="48.24123" lon="6.56136">
        <ele>330.2</ele>
        <time>2025-01-19T16:06:23Z</time>
      </trkpt>
      <trkpt lat="48.24131" lon="6.56148">
        <ele>330.7</ele>
        <time>2025-01-19T16:06:24Z</time>
      </trkpt>
      <trkpt lat="48.24141" lon="6.56156">
        <ele>331.3</ele>
        <time>2025-01-19T16:06:25Z</time>
      </trkpt>
      <trkpt lat="48.24152" lon="6.56161">
        <ele>331.9</ele>
        <time>2025-01-19T16:06:26Z</time>
      </trkpt>
      <trkpt lat="48.24163" lon="6.56163">
        <ele>332.5</ele>
        <time>2025-01-19T16:06:27Z</time>
      </trkpt>
      <trkpt lat="48.24174" lon="6.56166">
        <ele>333.1</ele>
        <time>2025-01-19T16:06:28Z</time>
      </trkpt>
      <trkpt lat="48.24185" lon="6.56169">
        <ele>333.8</ele>
        <time>2025-01-19T16:06:29Z</time>
      </trkpt>
      <trkpt lat="48.24197" lon="6.56172">
        <ele>334.4</ele>
        <time>2025-01-19T16:06:30Z</time>
      </trkpt>
      <trkpt lat="48.24208" lon="6.56175">
        <ele>334.9</ele>
        <time>2025-01-19T16:06:31Z</time>
      </trkpt>
      <trkpt lat="48.2422" lon="6.56179">
        <ele>335.4</ele>
        <time>2025-01-19T16:06:32Z</time>
      </trkpt>
      <trkpt lat="48.24231" lon="6.56182">
        <ele>335.9</ele>
        <time>2025-01-19T16:06:33Z</time>
      </trkpt>
      <trkpt lat="48.24242" lon="6.56186">
        <ele>336.3</ele>
        <time>2025-01-19T16:06:34Z</time>
      </trkpt>
      <trkpt lat="48.24254" lon="6.56189">
        <ele>336.8</ele>
        <time>2025-01-19T16:06:35Z</time>
      </trkpt>
      <trkpt lat="48.24265" lon="6.56193">
        <ele>337.2</ele>
        <time>2025-01-19T16:06:36Z</time>
      </trkpt>
      <trkpt lat="48.24275" lon="6.56196">
        <ele>337.5</ele>
        <time>2025-01-19T16:06:37Z</time>
      </trkpt>
      <trkpt lat="48.24286" lon="6.562">
        <ele>337.9</ele>
        <time>2025-01-19T16:06:38Z</time>
      </trkpt>
      <trkpt lat="48.24297" lon="6.56204">
        <ele>338.2</ele>
        <time>2025-01-19T16:06:39Z</time>
      </trkpt>
      <trkpt lat="48.24308" lon="6.56207">
        <ele>338.4</ele>
        <time>2025-01-19T16:06:40Z</time>
      </trkpt>
      <trkpt lat="48.24318" lon="6.56211">
        <ele>338.7</ele>
        <time>2025-01-19T16:06:41Z</time>
      </trkpt>
      <trkpt lat="48.24328" lon="6.56215">
        <ele>339</ele>
        <time>2025-01-19T16:06:42Z</time>
      </trkpt>
      <trkpt lat="48.24339" lon="6.56219">
        <ele>339.2</ele>
        <time>2025-01-19T16:06:43Z</time>
      </trkpt>
      <trkpt lat="48.24349" lon="6.56222">
        <ele>339.4</ele>
        <time>2025-01-19T16:06:44Z</time>
      </trkpt>
      <trkpt lat="48.2436" lon="6.56225">
        <ele>339.6</ele>
        <time>2025-01-19T16:06:45Z</time>
      </trkpt>
      <trkpt lat="48.24371" lon="6.56228">
        <ele>339.7</ele>
        <time>2025-01-19T16:06:46Z</time>
      </trkpt>
      <trkpt lat="48.24383" lon="6.56231">
        <ele>340</ele>
        <time>2025-01-19T16:06:47Z</time>
      </trkpt>
      <trkpt lat="48.24394" lon="6.56235">
        <ele>340.2</ele>
        <time>2025-01-19T16:06:48Z</time>
      </trkpt>
      <trkpt lat="48.24404" lon="6.5624">
        <ele>340.4</ele>
        <time>2025-01-19T16:06:49Z</time>
      </trkpt>
      <trkpt lat="48.24415" lon="6.56245">
        <ele>340.6</ele>
        <time>2025-01-19T16:06:50Z</time>
      </trkpt>
      <trkpt lat="48.24425" lon="6.56251">
        <ele>340.8</ele>
        <time>2025-01-19T16:06:51Z</time>
      </trkpt>
      <trkpt lat="48.24435" lon="6.56257">
        <ele>341</ele>
        <time>2025-01-19T16:06:52Z</time>
      </trkpt>
      <trkpt lat="48.24446" lon="6.56261">
        <ele>341.1</ele>
        <time>2025-01-19T16:06:53Z</time>
      </trkpt>
      <trkpt lat="48.24456" lon="6.56266">
        <ele>341.3</ele>
        <time>2025-01-19T16:06:54Z</time>
      </trkpt>
      <trkpt lat="48.24466" lon="6.5627">
        <ele>341.4</ele>
        <time>2025-01-19T16:06:55Z</time>
      </trkpt>
      <trkpt lat="48.24476" lon="6.56273">
        <ele>341.4</ele>
        <time>2025-01-19T16:06:56Z</time>
      </trkpt>
      <trkpt lat="48.24486" lon="6.56276">
        <ele>341.5</ele>
        <time>2025-01-19T16:06:57Z</time>
      </trkpt>
      <trkpt lat="48.24496" lon="6.5628">
        <ele>341.4</ele>
        <time>2025-01-19T16:06:58Z</time>
      </trkpt>
      <trkpt lat="48.24505" lon="6.56284">
        <ele>341.4</ele>
        <time>2025-01-19T16:06:59Z</time>
      </trkpt>
      <trkpt lat="48.24515" lon="6.56288">
        <ele>341.4</ele>
        <time>2025-01-19T16:07:00Z</time>
      </trkpt>
      <trkpt lat="48.24524" lon="6.56292">
        <ele>341.3</ele>
        <time>2025-01-19T16:07:01Z</time>
      </trkpt>
      <trkpt lat="48.24539" lon="6.56304">
        <ele>341.1</ele>
        <time>2025-01-19T16:07:03Z</time>
      </trkpt>
      <trkpt lat="48.24553" lon="6.56319">
        <ele>340.8</ele>
        <time>2025-01-19T16:07:05Z</time>
      </trkpt>
      <trkpt lat="48.24566" lon="6.56338">
        <ele>340.1</ele>
        <time>2025-01-19T16:07:07Z</time>
      </trkpt>
      <trkpt lat="48.24578" lon="6.56357">
        <ele>339.1</ele>
        <time>2025-01-19T16:07:09Z</time>
      </trkpt>
      <trkpt lat="48.24585" lon="6.56367">
        <ele>338.6</ele>
        <time>2025-01-19T16:07:10Z</time>
      </trkpt>
      <trkpt lat="48.24592" lon="6.56376">
        <ele>338</ele>
        <time>2025-01-19T16:07:11Z</time>
      </trkpt>
      <trkpt lat="48.246" lon="6.56384">
        <ele>337.6</ele>
        <time>2025-01-19T16:07:12Z</time>
      </trkpt>
      <trkpt lat="48.24608" lon="6.5639">
        <ele>337.3</ele>
        <time>2025-01-19T16:07:13Z</time>
      </trkpt>
      <trkpt lat="48.24618" lon="6.56393">
        <ele>337</ele>
        <time>2025-01-19T16:07:14Z</time>
      </trkpt>
      <trkpt lat="48.24627" lon="6.56394">
        <ele>336.7</ele>
        <time>2025-01-19T16:07:15Z</time>
      </trkpt>
      <trkpt lat="48.24637" lon="6.56394">
        <ele>336.4</ele>
        <time>2025-01-19T16:07:16Z</time>
      </trkpt>
      <trkpt lat="48.24647" lon="6.56393">
        <ele>336</ele>
        <time>2025-01-19T16:07:17Z</time>
      </trkpt>
      <trkpt lat="48.24658" lon="6.56392">
        <ele>335.7</ele>
        <time>2025-01-19T16:07:18Z</time>
      </trkpt>
      <trkpt lat="48.24669" lon="6.56391">
        <ele>335.4</ele>
        <time>2025-01-19T16:07:19Z</time>
      </trkpt>
      <trkpt lat="48.2468" lon="6.5639">
        <ele>335.2</ele>
        <time>2025-01-19T16:07:20Z</time>
      </trkpt>
      <trkpt lat="48.24692" lon="6.56389">
        <ele>334.9</ele>
        <time>2025-01-19T16:07:21Z</time>
      </trkpt>
      <trkpt lat="48.24703" lon="6.56389">
        <ele>334.7</ele>
        <time>2025-01-19T16:07:22Z</time>
      </trkpt>
      <trkpt lat="48.24714" lon="6.56389">
        <ele>334.5</ele>
        <time>2025-01-19T16:07:23Z</time>
      </trkpt>
      <trkpt lat="48.24726" lon="6.56389">
        <ele>334.4</ele>
        <time>2025-01-19T16:07:24Z</time>
      </trkpt>
      <trkpt lat="48.24737" lon="6.56389">
        <ele>334.3</ele>
        <time>2025-01-19T16:07:25Z</time>
      </trkpt>
      <trkpt lat="48.24748" lon="6.56389">
        <ele>334.2</ele>
        <time>2025-01-19T16:07:26Z</time>
      </trkpt>
      <trkpt lat="48.24759" lon="6.5639">
        <ele>334.1</ele>
        <time>2025-01-19T16:07:27Z</time>
      </trkpt>
      <trkpt lat="48.2477" lon="6.56391">
        <ele>333.9</ele>
        <time>2025-01-19T16:07:28Z</time>
      </trkpt>
      <trkpt lat="48.24781" lon="6.56392">
        <ele>333.8</ele>
        <time>2025-01-19T16:07:29Z</time>
      </trkpt>
      <trkpt lat="48.24792" lon="6.56394">
        <ele>333.5</ele>
        <time>2025-01-19T16:07:30Z</time>
      </trkpt>
      <trkpt lat="48.24803" lon="6.56396">
        <ele>333.3</ele>
        <time>2025-01-19T16:07:31Z</time>
      </trkpt>
      <trkpt lat="48.24814" lon="6.56399">
        <ele>332.9</ele>
        <time>2025-01-19T16:07:32Z</time>
      </trkpt>
      <trkpt lat="48.24824" lon="6.56402">
        <ele>332.5</ele>
        <time>2025-01-19T16:07:33Z</time>
      </trkpt>
      <trkpt lat="48.24835" lon="6.56405">
        <ele>331.9</ele>
        <time>2025-01-19T16:07:34Z</time>
      </trkpt>
      <trkpt lat="48.24846" lon="6.56408">
        <ele>331.3</ele>
        <time>2025-01-19T16:07:35Z</time>
      </trkpt>
      <trkpt lat="48.24856" lon="6.56409">
        <ele>330.7</ele>
        <time>2025-01-19T16:07:36Z</time>
      </trkpt>
      <trkpt lat="48.24867" lon="6.56411">
        <ele>330</ele>
        <time>2025-01-19T16:07:37Z</time>
      </trkpt>
      <trkpt lat="48.24878" lon="6.56413">
        <ele>329.4</ele>
        <time>2025-01-19T16:07:38Z</time>
      </trkpt>
      <trkpt lat="48.24889" lon="6.56415">
        <ele>328.9</ele>
        <time>2025-01-19T16:07:39Z</time>
      </trkpt>
      <trkpt lat="48.24901" lon="6.56416">
        <ele>328.5</ele>
        <time>2025-01-19T16:07:40Z</time>
      </trkpt>
      <trkpt lat="48.24912" lon="6.56417">
        <ele>328.2</ele>
        <time>2025-01-19T16:07:41Z</time>
      </trkpt>
      <trkpt lat="48.24923" lon="6.56418">
        <ele>327.8</ele>
        <time>2025-01-19T16:07:42Z</time>
      </trkpt>
      <trkpt lat="48.24934" lon="6.56419">
        <ele>327.6</ele>
        <time>2025-01-19T16:07:43Z</time>
      </trkpt>
      <trkpt lat="48.24944" lon="6.5642">
        <ele>327.4</ele>
        <time>2025-01-19T16:07:44Z</time>
      </trkpt>
      <trkpt lat="48.24955" lon="6.56422">
        <ele>327.1</ele>
        <time>2025-01-19T16:07:45Z</time>
      </trkpt>
      <trkpt lat="48.24965" lon="6.56423">
        <ele>327</ele>
        <time>2025-01-19T16:07:46Z</time>
      </trkpt>
      <trkpt lat="48.24975" lon="6.56424">
        <ele>326.8</ele>
        <time>2025-01-19T16:07:47Z</time>
      </trkpt>
      <trkpt lat="48.24985" lon="6.56425">
        <ele>326.6</ele>
        <time>2025-01-19T16:07:48Z</time>
      </trkpt>
      <trkpt lat="48.24995" lon="6.56426">
        <ele>326.5</ele>
        <time>2025-01-19T16:07:49Z</time>
      </trkpt>
      <trkpt lat="48.25005" lon="6.56427">
        <ele>326.4</ele>
        <time>2025-01-19T16:07:50Z</time>
      </trkpt>
      <trkpt lat="48.25014" lon="6.56427">
        <ele>326.3</ele>
        <time>2025-01-19T16:07:51Z</time>
      </trkpt>
      <trkpt lat="48.25023" lon="6.56428">
        <ele>326.2</ele>
        <time>2025-01-19T16:07:52Z</time>
      </trkpt>
      <trkpt lat="48.25033" lon="6.56429">
        <ele>326.2</ele>
        <time>2025-01-19T16:07:53Z</time>
      </trkpt>
      <trkpt lat="48.2505" lon="6.56431">
        <ele>326.1</ele>
        <time>2025-01-19T16:07:55Z</time>
      </trkpt>
      <trkpt lat="48.25066" lon="6.56433">
        <ele>326.1</ele>
        <time>2025-01-19T16:07:57Z</time>
      </trkpt>
      <trkpt lat="48.25081" lon="6.56435">
        <ele>326.2</ele>
        <time>2025-01-19T16:07:59Z</time>
      </trkpt>
      <trkpt lat="48.25092" lon="6.56436">
        <ele>326.4</ele>
        <time>2025-01-19T16:08:01Z</time>
      </trkpt>
      <trkpt lat="48.25101" lon="6.56427">
        <ele>326.4</ele>
        <time>2025-01-19T16:08:04Z</time>
      </trkpt>
      <trkpt lat="48.25104" lon="6.56424">
        <ele>326.4</ele>
        <time>2025-01-19T16:08:14Z</time>
      </trkpt>
      <trkpt lat="48.25104" lon="6.56424">
        <ele>326.4</ele>
        <time>2025-01-19T16:08:15Z</time>
      </trkpt>
      <trkpt lat="48.25104" lon="6.56424">
        <ele>326.4</ele>
        <time>2025-01-19T16:08:19Z</time>
      </trkpt>
      <trkpt lat="48.25104" lon="6.56424">
        <ele>326.4</ele>
        <time>2025-01-19T16:08:20Z</time>
      </trkpt>
      <trkpt lat="48.25104" lon="6.56424">
        <ele>326.4</ele>
        <time>2025-01-19T16:08:35Z</time>
      </trkpt>
      <trkpt lat="48.25104" lon="6.56424">
        <ele>326.4</ele>
        <time>2025-01-19T16:08:36Z</time>
      </trkpt>
      <trkpt lat="48.25104" lon="6.56424">
        <ele>326.4</ele>
        <time>2025-01-19T16:08:37Z</time>
      </trkpt>
      <trkpt lat="48.25104" lon="6.56424">
        <ele>326.4</ele>
        <time>2025-01-19T16:09:00Z</time>
      </trkpt>
      <trkpt lat="48.25104" lon="6.56424">
        <ele>326.4</ele>
        <time>2025-01-19T16:09:01Z</time>
      </trkpt>
      <trkpt lat="48.25104" lon="6.56424">
        <ele>326.4</ele>
        <time>2025-01-19T16:09:02Z</time>
      </trkpt>
      <trkpt lat="48.25104" lon="6.56424">
        <ele>326.4</ele>
        <time>2025-01-19T16:09:06Z</time>
      </trkpt>
      <trkpt lat="48.25103" lon="6.56424">
        <ele>326.4</ele>
        <time>2025-01-19T16:09:07Z</time>
      </trkpt>
      <trkpt lat="48.25103" lon="6.56423">
        <ele>326.4</ele>
        <time>2025-01-19T16:09:10Z</time>
      </trkpt>
      <trkpt lat="48.25103" lon="6.56423">
        <ele>326.4</ele>
        <time>2025-01-19T16:09:10Z</time>
      </trkpt>
      <trkpt lat="48.25103" lon="6.56423">
        <ele>326.4</ele>
        <time>2025-01-19T16:09:10Z</time>
      </trkpt>
    </trkseg>
  </trk>
</gpx>